CAN1435 SPJC-LEMD
Flight info
| Callsign | CAN1435 |
|---|---|
| Flight time | N/A |
| Altitude | 35000 |
| Route | OPROS UT315 VADOS UM527 GEDOV/N0483F370 UM527 TRAPP DCT 15N050W DCT QUETN/M081F370 DCT 23N040W/M081F390 30N030W 35N020W DCT LUTAK/N0469F400 DCT PORTA DCT OGERO Z409 TLD |
| Aircraft | A388/J-SADE2E3FGHIJ3J4J5M1RWXY/LB1D1 |
Departure
| Time | 2026-05-07 22:10 |
|---|---|
| Airport | Jorge Chávez International Airport (SPJC) |
Arrival
| Time | N/A |
|---|---|
| Airport | Adolfo Suárez Madrid–Barajas Airport (LEMD) |
| Time | Latitude | Longitude | Altitude | Speed | Heading |
|---|---|---|---|---|---|
| 2026-05-07 21:59 | -12.00865 | -77.11798 | 69 ft | 0 kts | 154° |
| 2026-05-07 22:03 | -12.00848 | -77.11805 | 59 ft | 4 kts | 169° |
| 2026-05-07 22:03 | -12.00828 | -77.11804 | 59 ft | 4 kts | 204° |
| 2026-05-07 22:03 | -12.00814 | -77.11791 | 59 ft | 3 kts | 242° |
| 2026-05-07 22:04 | -12.00813 | -77.11788 | 59 ft | 3 kts | 244° |
| 2026-05-07 22:07 | -12.00815 | -77.11794 | 59 ft | 3 kts | 244° |
| 2026-05-07 22:07 | -12.00831 | -77.11826 | 58 ft | 7 kts | 244° |
| 2026-05-07 22:07 | -12.00841 | -77.11872 | 58 ft | 6 kts | 295° |
| 2026-05-07 22:07 | -12.00808 | -77.11902 | 57 ft | 8 kts | 328° |
| 2026-05-07 22:08 | -12.00746 | -77.11934 | 55 ft | 11 kts | 335° |
| 2026-05-07 22:08 | -12.00682 | -77.11984 | 60 ft | 12 kts | 288° |
| 2026-05-07 22:08 | -12.00699 | -77.12055 | 53 ft | 12 kts | 244° |
| 2026-05-07 22:08 | -12.00754 | -77.12111 | 51 ft | 11 kts | 195° |
| 2026-05-07 22:09 | -12.00825 | -77.12103 | 54 ft | 10 kts | 163° |
| 2026-05-07 22:09 | -12.00895 | -77.12069 | 51 ft | 24 kts | 152° |
| 2026-05-07 22:09 | -12.01264 | -77.11888 | 59 ft | 95 kts | 155° |
| 2026-05-07 22:09 | -12.02058 | -77.11495 | 68 ft | 153 kts | 153° |
| 2026-05-07 22:10 | -12.03097 | -77.10971 | 234 ft | 178 kts | 155° |
| 2026-05-07 22:10 | -12.04217 | -77.10419 | 731 ft | 180 kts | 158° |
| 2026-05-07 22:10 | -12.05403 | -77.10051 | 1209 ft | 177 kts | 183° |
| 2026-05-07 22:10 | -12.06535 | -77.10493 | 1623 ft | 184 kts | 219° |
| 2026-05-07 22:11 | -12.07214 | -77.11646 | 1746 ft | 203 kts | 256° |
| 2026-05-07 22:11 | -12.07096 | -77.13134 | 1832 ft | 224 kts | 291° |
| 2026-05-07 22:11 | -12.06092 | -77.14446 | 2100 ft | 247 kts | 323° |
| 2026-05-07 22:11 | -12.04447 | -77.15137 | 2353 ft | 269 kts | 354° |
| 2026-05-07 22:12 | -12.02618 | -77.14902 | 3086 ft | 266 kts | 23° |
| 2026-05-07 22:12 | -12.01104 | -77.13832 | 3739 ft | 268 kts | 51° |
| 2026-05-07 22:12 | -12.00183 | -77.12180 | 4323 ft | 271 kts | 70° |
| 2026-05-07 22:12 | -11.99454 | -77.10383 | 4960 ft | 275 kts | 65° |
| 2026-05-07 22:13 | -11.98496 | -77.08679 | 5615 ft | 279 kts | 56° |
| 2026-05-07 22:13 | -11.97306 | -77.07104 | 6232 ft | 282 kts | 50° |
| 2026-05-07 22:13 | -11.95972 | -77.05611 | 6820 ft | 285 kts | 47° |
| 2026-05-07 22:13 | -11.94581 | -77.04165 | 7422 ft | 286 kts | 46° |
| 2026-05-07 22:14 | -11.93164 | -77.02726 | 8003 ft | 289 kts | 45° |
| 2026-05-07 22:14 | -11.91735 | -77.01278 | 8570 ft | 291 kts | 45° |
| 2026-05-07 22:14 | -11.90295 | -76.99813 | 9163 ft | 294 kts | 45° |
| 2026-05-07 22:14 | -11.88840 | -76.98329 | 9759 ft | 296 kts | 45° |
| 2026-05-07 22:15 | -11.87379 | -76.96836 | 10185 ft | 302 kts | 45° |
| 2026-05-07 22:15 | -11.85854 | -76.95275 | 10316 ft | 319 kts | 45° |
| 2026-05-07 22:15 | -11.84263 | -76.93648 | 10462 ft | 334 kts | 45° |
| 2026-05-07 22:15 | -11.82567 | -76.91913 | 10641 ft | 347 kts | 45° |
| 2026-05-07 22:16 | -11.80872 | -76.90179 | 11091 ft | 351 kts | 45° |
| 2026-05-07 22:16 | -11.79140 | -76.88409 | 11574 ft | 353 kts | 45° |
| 2026-05-07 22:16 | -11.77375 | -76.86605 | 12083 ft | 356 kts | 45° |
| 2026-05-07 22:16 | -11.75621 | -76.84812 | 12570 ft | 359 kts | 45° |
| 2026-05-07 22:17 | -11.73846 | -76.82998 | 13046 ft | 362 kts | 45° |
| 2026-05-07 22:17 | -11.72065 | -76.81179 | 13539 ft | 365 kts | 45° |
| 2026-05-07 22:17 | -11.70286 | -76.79363 | 13988 ft | 367 kts | 45° |
| 2026-05-07 22:17 | -11.68477 | -76.77515 | 14486 ft | 368 kts | 45° |
| 2026-05-07 22:18 | -11.66668 | -76.75669 | 14955 ft | 369 kts | 45° |
| 2026-05-07 22:18 | -11.63020 | -76.71945 | 15895 ft | 372 kts | 45° |
| 2026-05-07 22:18 | -11.61188 | -76.70077 | 16379 ft | 374 kts | 45° |
| 2026-05-07 22:19 | -11.59346 | -76.68198 | 16876 ft | 375 kts | 45° |
| 2026-05-07 22:19 | -11.57493 | -76.66307 | 17312 ft | 377 kts | 45° |
| 2026-05-07 22:19 | -11.55639 | -76.64417 | 17759 ft | 379 kts | 46° |
| 2026-05-07 22:19 | -11.53766 | -76.62506 | 18221 ft | 381 kts | 45° |
| 2026-05-07 22:20 | -11.51885 | -76.60588 | 18578 ft | 384 kts | 45° |
| 2026-05-07 22:20 | -11.49993 | -76.58660 | 18898 ft | 387 kts | 46° |
| 2026-05-07 22:20 | -11.48081 | -76.56711 | 19210 ft | 390 kts | 46° |
| 2026-05-07 22:20 | -11.46161 | -76.54756 | 19596 ft | 391 kts | 46° |
| 2026-05-07 22:21 | -11.44228 | -76.52787 | 19925 ft | 393 kts | 46° |
| 2026-05-07 22:21 | -11.42283 | -76.50806 | 20240 ft | 397 kts | 46° |
| 2026-05-07 22:21 | -11.40330 | -76.48816 | 20585 ft | 399 kts | 46° |
| 2026-05-07 22:21 | -11.38353 | -76.46809 | 20882 ft | 402 kts | 45° |
| 2026-05-07 22:22 | -11.36341 | -76.44820 | 21218 ft | 404 kts | 45° |
| 2026-05-07 22:22 | -11.34309 | -76.42835 | 21533 ft | 407 kts | 45° |
| 2026-05-07 22:22 | -11.32259 | -76.40830 | 21827 ft | 410 kts | 45° |
| 2026-05-07 22:22 | -11.30199 | -76.38813 | 22151 ft | 412 kts | 45° |
| 2026-05-07 22:23 | -11.28133 | -76.36783 | 22473 ft | 414 kts | 45° |
| 2026-05-07 22:23 | -11.26054 | -76.34741 | 22779 ft | 416 kts | 45° |
| 2026-05-07 22:23 | -11.23974 | -76.32696 | 23092 ft | 418 kts | 45° |
| 2026-05-07 22:23 | -11.21877 | -76.30635 | 23418 ft | 419 kts | 45° |
| 2026-05-07 22:24 | -11.19776 | -76.28571 | 23748 ft | 421 kts | 45° |
| 2026-05-07 22:24 | -11.17664 | -76.26496 | 23997 ft | 423 kts | 45° |
| 2026-05-07 22:24 | -11.15544 | -76.24413 | 24271 ft | 424 kts | 45° |
| 2026-05-07 22:24 | -11.13415 | -76.22322 | 24518 ft | 427 kts | 44° |
| 2026-05-07 22:25 | -11.11275 | -76.20221 | 24744 ft | 429 kts | 44° |
| 2026-05-07 22:25 | -11.09122 | -76.18108 | 25034 ft | 430 kts | 44° |
| 2026-05-07 22:25 | -11.06964 | -76.15990 | 25274 ft | 432 kts | 44° |
| 2026-05-07 22:25 | -11.04789 | -76.13856 | 25523 ft | 434 kts | 44° |
| 2026-05-07 22:26 | -11.02618 | -76.11726 | 25764 ft | 436 kts | 44° |
| 2026-05-07 22:26 | -11.00428 | -76.09578 | 26023 ft | 437 kts | 44° |
| 2026-05-07 22:26 | -10.98259 | -76.07451 | 26276 ft | 439 kts | 44° |
| 2026-05-07 22:26 | -10.96080 | -76.05244 | 26527 ft | 442 kts | 47° |
| 2026-05-07 22:27 | -10.94003 | -76.02931 | 26787 ft | 444 kts | 47° |
| 2026-05-07 22:27 | -10.91910 | -76.00615 | 27070 ft | 445 kts | 46° |
| 2026-05-07 22:27 | -10.89811 | -75.98301 | 27341 ft | 447 kts | 46° |
| 2026-05-07 22:27 | -10.87693 | -75.95967 | 27612 ft | 450 kts | 46° |
| 2026-05-07 22:28 | -10.85565 | -75.93624 | 27885 ft | 452 kts | 46° |
| 2026-05-07 22:28 | -10.83427 | -75.91267 | 28194 ft | 453 kts | 46° |
| 2026-05-07 22:28 | -10.81290 | -75.88911 | 28480 ft | 455 kts | 46° |
| 2026-05-07 22:28 | -10.79131 | -75.86532 | 28782 ft | 458 kts | 46° |
| 2026-05-07 22:29 | -10.76972 | -75.84154 | 29089 ft | 460 kts | 46° |
| 2026-05-07 22:29 | -10.74794 | -75.81758 | 29401 ft | 462 kts | 46° |
| 2026-05-07 22:29 | -10.72606 | -75.79349 | 29717 ft | 465 kts | 46° |
| 2026-05-07 22:29 | -10.70403 | -75.76924 | 30037 ft | 467 kts | 46° |
| 2026-05-07 22:30 | -10.68190 | -75.74490 | 30314 ft | 470 kts | 46° |
| 2026-05-07 22:30 | -10.65973 | -75.72050 | 30611 ft | 471 kts | 45° |
| 2026-05-07 22:30 | -10.63741 | -75.69595 | 30856 ft | 474 kts | 45° |
| 2026-05-07 22:30 | -10.61494 | -75.67125 | 31120 ft | 477 kts | 45° |
| 2026-05-07 22:31 | -10.59241 | -75.64648 | 31408 ft | 479 kts | 45° |
| 2026-05-07 22:31 | -10.56969 | -75.62152 | 31685 ft | 481 kts | 45° |
| 2026-05-07 22:31 | -10.54689 | -75.59647 | 31953 ft | 484 kts | 45° |
| 2026-05-07 22:31 | -10.52397 | -75.57128 | 32229 ft | 487 kts | 45° |
| 2026-05-07 22:32 | -10.50095 | -75.54598 | 32494 ft | 489 kts | 45° |
| 2026-05-07 22:32 | -10.47777 | -75.52053 | 32768 ft | 492 kts | 45° |
| 2026-05-07 22:32 | -10.45440 | -75.49489 | 33032 ft | 494 kts | 45° |
| 2026-05-07 22:32 | -10.43096 | -75.46917 | 33268 ft | 497 kts | 45° |
| 2026-05-07 22:33 | -10.40774 | -75.44369 | 33543 ft | 499 kts | 45° |
| 2026-05-07 22:33 | -10.38416 | -75.41780 | 33762 ft | 502 kts | 45° |
| 2026-05-07 22:33 | -10.36039 | -75.39171 | 34037 ft | 503 kts | 45° |
| 2026-05-07 22:33 | -10.33652 | -75.36556 | 34258 ft | 506 kts | 45° |
| 2026-05-07 22:34 | -10.31260 | -75.33934 | 34535 ft | 507 kts | 45° |
| 2026-05-07 22:34 | -10.28855 | -75.31300 | 34800 ft | 508 kts | 45° |
| 2026-05-07 22:34 | -10.26448 | -75.28664 | 34918 ft | 511 kts | 45° |
| 2026-05-07 22:35 | -10.21602 | -75.23356 | 34882 ft | 511 kts | 45° |
| 2026-05-07 22:35 | -10.16786 | -75.18084 | 34866 ft | 511 kts | 45° |
| 2026-05-07 22:36 | -10.11949 | -75.12791 | 34852 ft | 510 kts | 45° |
| 2026-05-07 22:36 | -10.07126 | -75.07516 | 34841 ft | 510 kts | 45° |
| 2026-05-07 22:37 | -10.02253 | -75.02191 | 34833 ft | 520 kts | 45° |
| 2026-05-07 22:37 | -9.97326 | -74.96807 | 34837 ft | 525 kts | 45° |
| 2026-05-07 22:38 | -9.92359 | -74.91381 | 34836 ft | 525 kts | 45° |
| 2026-05-07 22:38 | -9.87388 | -74.85955 | 34841 ft | 525 kts | 45° |
| 2026-05-07 22:39 | -9.82420 | -74.80534 | 34842 ft | 525 kts | 45° |
| 2026-05-07 22:39 | -9.77458 | -74.75123 | 34837 ft | 524 kts | 45° |
| 2026-05-07 22:40 | -9.72501 | -74.69719 | 34833 ft | 523 kts | 45° |
| 2026-05-07 22:40 | -9.67548 | -74.64323 | 34830 ft | 522 kts | 45° |
| 2026-05-07 22:41 | -9.62602 | -74.58937 | 34827 ft | 521 kts | 45° |
| 2026-05-07 22:41 | -9.57664 | -74.53562 | 34825 ft | 521 kts | 45° |
| 2026-05-07 22:42 | -9.52751 | -74.48214 | 34830 ft | 522 kts | 45° |
| 2026-05-07 22:42 | -9.47798 | -74.42827 | 34827 ft | 522 kts | 45° |
| 2026-05-07 22:43 | -9.42840 | -74.37440 | 34831 ft | 523 kts | 45° |
| 2026-05-07 22:43 | -9.37891 | -74.32062 | 34835 ft | 524 kts | 45° |
| 2026-05-07 22:44 | -9.32918 | -74.26662 | 34833 ft | 525 kts | 45° |
| 2026-05-07 22:44 | -9.27940 | -74.21258 | 34832 ft | 525 kts | 45° |
| 2026-05-07 22:45 | -9.22965 | -74.15859 | 34832 ft | 525 kts | 45° |
| 2026-05-07 22:45 | -9.17979 | -74.10450 | 34831 ft | 524 kts | 45° |
| 2026-05-07 22:46 | -9.13004 | -74.05057 | 34832 ft | 524 kts | 45° |
| 2026-05-07 22:46 | -9.08026 | -73.99664 | 34829 ft | 524 kts | 45° |
| 2026-05-07 22:47 | -9.03057 | -73.94282 | 34828 ft | 523 kts | 45° |
| 2026-05-07 22:47 | -8.98950 | -73.89835 | 34824 ft | 523 kts | 45° |
| 2026-05-07 22:48 | -8.93960 | -73.84434 | 34828 ft | 523 kts | 45° |
| 2026-05-07 22:48 | -8.88995 | -73.79062 | 34828 ft | 523 kts | 45° |
| 2026-05-07 22:49 | -8.84024 | -73.73687 | 34833 ft | 523 kts | 45° |
| 2026-05-07 22:49 | -8.78242 | -73.67438 | 34837 ft | 523 kts | 45° |
| 2026-05-07 22:50 | -8.74083 | -73.62945 | 34839 ft | 523 kts | 45° |
| 2026-05-07 22:50 | -8.69109 | -73.57573 | 34843 ft | 523 kts | 45° |
| 2026-05-07 22:51 | -8.64168 | -73.52239 | 34844 ft | 523 kts | 45° |
| 2026-05-07 22:51 | -8.59189 | -73.46867 | 34847 ft | 523 kts | 45° |
| 2026-05-07 22:52 | -8.54205 | -73.41490 | 34854 ft | 523 kts | 45° |
| 2026-05-07 22:52 | -8.49222 | -73.36118 | 34851 ft | 524 kts | 45° |
| 2026-05-07 22:53 | -8.44223 | -73.30772 | 34854 ft | 523 kts | 45° |
| 2026-05-07 22:53 | -8.39154 | -73.25496 | 34854 ft | 523 kts | 45° |
| 2026-05-07 22:54 | -8.34087 | -73.20216 | 34855 ft | 524 kts | 45° |
| 2026-05-07 22:54 | -8.29020 | -73.14922 | 34857 ft | 524 kts | 45° |
| 2026-05-07 22:55 | -8.23966 | -73.09640 | 34858 ft | 524 kts | 45° |
| 2026-05-07 22:55 | -8.18899 | -73.04346 | 34862 ft | 524 kts | 45° |
| 2026-05-07 22:56 | -8.13835 | -72.99059 | 34863 ft | 524 kts | 45° |
| 2026-05-07 22:56 | -8.08762 | -72.93764 | 34864 ft | 524 kts | 45° |
| 2026-05-07 22:57 | -8.03727 | -72.88511 | 34864 ft | 524 kts | 45° |
| 2026-05-07 22:57 | -7.98661 | -72.83227 | 34864 ft | 524 kts | 45° |
| 2026-05-07 22:58 | -7.93595 | -72.77945 | 34866 ft | 524 kts | 45° |
| 2026-05-07 22:58 | -7.88502 | -72.72637 | 34864 ft | 523 kts | 45° |
| 2026-05-07 22:59 | -7.83469 | -72.67394 | 34864 ft | 523 kts | 45° |
| 2026-05-07 22:59 | -7.78408 | -72.62125 | 34864 ft | 523 kts | 45° |
| 2026-05-07 23:00 | -7.73350 | -72.56859 | 34861 ft | 523 kts | 45° |
| 2026-05-07 23:00 | -7.68294 | -72.51597 | 34862 ft | 523 kts | 45° |
| 2026-05-07 23:01 | -7.63230 | -72.46329 | 34866 ft | 522 kts | 45° |
| 2026-05-07 23:01 | -7.58175 | -72.41072 | 34867 ft | 522 kts | 45° |
| 2026-05-07 23:02 | -7.53111 | -72.35807 | 34869 ft | 522 kts | 45° |
| 2026-05-07 23:02 | -7.48053 | -72.30551 | 34873 ft | 523 kts | 45° |
| 2026-05-07 23:03 | -7.43000 | -72.25300 | 34871 ft | 523 kts | 45° |
| 2026-05-07 23:03 | -7.37931 | -72.20037 | 34876 ft | 523 kts | 45° |
| 2026-05-07 23:04 | -7.32872 | -72.14784 | 34873 ft | 523 kts | 45° |
| 2026-05-07 23:04 | -7.27812 | -72.09533 | 34877 ft | 522 kts | 45° |
| 2026-05-07 23:05 | -7.22776 | -72.04309 | 34874 ft | 523 kts | 45° |
| 2026-05-07 23:05 | -7.17714 | -71.99058 | 34879 ft | 523 kts | 45° |
| 2026-05-07 23:06 | -7.12647 | -71.93806 | 34881 ft | 523 kts | 45° |
| 2026-05-07 23:06 | -7.07583 | -71.88558 | 34881 ft | 523 kts | 45° |
| 2026-05-07 23:07 | -7.02520 | -71.83312 | 34879 ft | 523 kts | 45° |
| 2026-05-07 23:07 | -6.97448 | -71.78060 | 34881 ft | 522 kts | 44° |
| 2026-05-07 23:08 | -6.92384 | -71.72817 | 34874 ft | 522 kts | 44° |
| 2026-05-07 23:08 | -6.87333 | -71.67590 | 34878 ft | 522 kts | 44° |
| 2026-05-07 23:09 | -6.82248 | -71.62329 | 34879 ft | 523 kts | 44° |
| 2026-05-07 23:09 | -6.77180 | -71.57087 | 34880 ft | 523 kts | 44° |
| 2026-05-07 23:10 | -6.72110 | -71.51845 | 34888 ft | 523 kts | 44° |
| 2026-05-07 23:10 | -6.67041 | -71.46605 | 34887 ft | 523 kts | 44° |
| 2026-05-07 23:11 | -6.61965 | -71.41360 | 34887 ft | 522 kts | 44° |
| 2026-05-07 23:11 | -6.56931 | -71.36164 | 34886 ft | 522 kts | 44° |
| 2026-05-07 23:12 | -6.51864 | -71.30939 | 34882 ft | 522 kts | 44° |
| 2026-05-07 23:12 | -6.46799 | -71.25716 | 34881 ft | 521 kts | 44° |
| 2026-05-07 23:13 | -6.41737 | -71.20497 | 34875 ft | 521 kts | 44° |
| 2026-05-07 23:13 | -6.36678 | -71.15281 | 34876 ft | 521 kts | 44° |
| 2026-05-07 23:14 | -6.31617 | -71.10063 | 34875 ft | 521 kts | 44° |
| 2026-05-07 23:14 | -6.26557 | -71.04848 | 34870 ft | 521 kts | 44° |
| 2026-05-07 23:15 | -6.21483 | -70.99620 | 34868 ft | 522 kts | 44° |
| 2026-05-07 23:15 | -6.16411 | -70.94396 | 34871 ft | 522 kts | 44° |
| 2026-05-07 23:15 | -6.13894 | -70.91805 | 35021 ft | 526 kts | 44° |
| 2026-05-07 23:16 | -6.11342 | -70.89177 | 35445 ft | 524 kts | 44° |
| 2026-05-07 23:16 | -6.08796 | -70.86555 | 35842 ft | 522 kts | 44° |
| 2026-05-07 23:16 | -6.06268 | -70.83952 | 36238 ft | 521 kts | 44° |
| 2026-05-07 23:16 | -6.03733 | -70.81344 | 36625 ft | 520 kts | 44° |
| 2026-05-07 23:17 | -6.01204 | -70.78741 | 36839 ft | 523 kts | 44° |
| 2026-05-07 23:17 | -5.96176 | -70.73568 | 36868 ft | 514 kts | 45° |
| 2026-05-07 23:18 | -5.91167 | -70.68415 | 36869 ft | 515 kts | 45° |
| 2026-05-07 23:18 | -5.86154 | -70.63261 | 36871 ft | 515 kts | 45° |
| 2026-05-07 23:19 | -5.81179 | -70.58145 | 36868 ft | 515 kts | 45° |
| 2026-05-07 23:19 | -5.76170 | -70.52997 | 36867 ft | 514 kts | 45° |
| 2026-05-07 23:20 | -5.71172 | -70.47862 | 36858 ft | 514 kts | 45° |
| 2026-05-07 23:20 | -5.66184 | -70.42738 | 36854 ft | 513 kts | 45° |
| 2026-05-07 23:21 | -5.61193 | -70.37612 | 36858 ft | 513 kts | 45° |
| 2026-05-07 23:21 | -5.56207 | -70.32493 | 36857 ft | 513 kts | 45° |
| 2026-05-07 23:22 | -5.51255 | -70.27410 | 36855 ft | 513 kts | 45° |
| 2026-05-07 23:22 | -5.46264 | -70.22289 | 36852 ft | 513 kts | 45° |
| 2026-05-07 23:23 | -5.41263 | -70.17158 | 36861 ft | 514 kts | 45° |
| 2026-05-07 23:23 | -5.36251 | -70.12017 | 36860 ft | 514 kts | 45° |
| 2026-05-07 23:24 | -5.31282 | -70.06922 | 36864 ft | 514 kts | 45° |
| 2026-05-07 23:24 | -5.26273 | -70.01787 | 36862 ft | 514 kts | 45° |
| 2026-05-07 23:25 | -5.21271 | -69.96661 | 36860 ft | 515 kts | 45° |
| 2026-05-07 23:25 | -5.16257 | -69.91523 | 36857 ft | 515 kts | 45° |
| 2026-05-07 23:26 | -5.11246 | -69.86390 | 36858 ft | 515 kts | 45° |
| 2026-05-07 23:26 | -5.06227 | -69.81249 | 36859 ft | 515 kts | 45° |
| 2026-05-07 23:27 | -4.98714 | -69.73557 | 36859 ft | 514 kts | 45° |
| 2026-05-07 23:27 | -4.93746 | -69.68472 | 36852 ft | 514 kts | 45° |
| 2026-05-07 23:28 | -4.88742 | -69.63352 | 36852 ft | 514 kts | 45° |
| 2026-05-07 23:28 | -4.83735 | -69.58233 | 36851 ft | 514 kts | 45° |
| 2026-05-07 23:29 | -4.78719 | -69.53106 | 36852 ft | 513 kts | 45° |
| 2026-05-07 23:29 | -4.73729 | -69.48006 | 36851 ft | 513 kts | 45° |
| 2026-05-07 23:30 | -4.68728 | -69.42895 | 36850 ft | 513 kts | 45° |
| 2026-05-07 23:30 | -4.63731 | -69.37788 | 36849 ft | 513 kts | 45° |
| 2026-05-07 23:31 | -4.58738 | -69.32683 | 36846 ft | 513 kts | 45° |
| 2026-05-07 23:31 | -4.53735 | -69.27570 | 36846 ft | 513 kts | 45° |
| 2026-05-07 23:32 | -4.48764 | -69.22491 | 36847 ft | 513 kts | 45° |
| 2026-05-07 23:32 | -4.43760 | -69.17380 | 36852 ft | 513 kts | 45° |
| 2026-05-07 23:33 | -4.38761 | -69.12275 | 36854 ft | 513 kts | 45° |
| 2026-05-07 23:33 | -4.33767 | -69.07175 | 36851 ft | 513 kts | 45° |
| 2026-05-07 23:34 | -4.28758 | -69.02062 | 36857 ft | 513 kts | 45° |
| 2026-05-07 23:34 | -4.23764 | -68.96965 | 36855 ft | 512 kts | 45° |
| 2026-05-07 23:35 | -4.18781 | -68.91879 | 36855 ft | 512 kts | 45° |
| 2026-05-07 23:35 | -4.13793 | -68.86790 | 36857 ft | 511 kts | 45° |
| 2026-05-07 23:36 | -4.08804 | -68.81701 | 36857 ft | 511 kts | 45° |
| 2026-05-07 23:36 | -4.03851 | -68.76650 | 36861 ft | 511 kts | 45° |
| 2026-05-07 23:37 | -3.98878 | -68.71580 | 36863 ft | 510 kts | 45° |
| 2026-05-07 23:37 | -3.93901 | -68.66515 | 36858 ft | 510 kts | 45° |
| 2026-05-07 23:38 | -3.88926 | -68.61451 | 36863 ft | 509 kts | 45° |
| 2026-05-07 23:38 | -3.83963 | -68.56400 | 36860 ft | 509 kts | 45° |
| 2026-05-07 23:39 | -3.78999 | -68.51349 | 36862 ft | 509 kts | 45° |
| 2026-05-07 23:39 | -3.74859 | -68.47137 | 36864 ft | 509 kts | 45° |
| 2026-05-07 23:40 | -3.69896 | -68.42089 | 36866 ft | 509 kts | 45° |
| 2026-05-07 23:40 | -3.64924 | -68.37033 | 36866 ft | 509 kts | 45° |
| 2026-05-07 23:41 | -3.59959 | -68.31984 | 36870 ft | 509 kts | 45° |
| 2026-05-07 23:41 | -3.54989 | -68.26931 | 36869 ft | 509 kts | 45° |
| 2026-05-07 23:42 | -3.50023 | -68.21883 | 36875 ft | 509 kts | 45° |
| 2026-05-07 23:42 | -3.45048 | -68.16826 | 36878 ft | 510 kts | 45° |
| 2026-05-07 23:43 | -3.40064 | -68.11761 | 36878 ft | 510 kts | 45° |
| 2026-05-07 23:43 | -3.35112 | -68.06730 | 36882 ft | 510 kts | 45° |
| 2026-05-07 23:44 | -3.30129 | -68.01669 | 36883 ft | 511 kts | 45° |
| 2026-05-07 23:44 | -3.25140 | -67.96601 | 36887 ft | 511 kts | 45° |
| 2026-05-07 23:45 | -3.20142 | -67.91525 | 36889 ft | 511 kts | 45° |
| 2026-05-07 23:45 | -3.15141 | -67.86447 | 36890 ft | 512 kts | 45° |
| 2026-05-07 23:46 | -3.10148 | -67.81378 | 36892 ft | 512 kts | 45° |
| 2026-05-07 23:46 | -3.05176 | -67.76330 | 36898 ft | 512 kts | 45° |
| 2026-05-07 23:47 | -3.00179 | -67.71258 | 36895 ft | 512 kts | 45° |
| 2026-05-07 23:47 | -2.95179 | -67.66184 | 36895 ft | 512 kts | 45° |
| 2026-05-07 23:48 | -2.90186 | -67.61117 | 36892 ft | 512 kts | 45° |
| 2026-05-07 23:48 | -2.85185 | -67.56044 | 36897 ft | 512 kts | 45° |
| 2026-05-07 23:49 | -2.80186 | -67.50972 | 36898 ft | 511 kts | 45° |
| 2026-05-07 23:49 | -2.75192 | -67.45906 | 36892 ft | 512 kts | 45° |
| 2026-05-07 23:50 | -2.70242 | -67.40899 | 36897 ft | 512 kts | 45° |
| 2026-05-07 23:50 | -2.65232 | -67.35847 | 36897 ft | 512 kts | 45° |
| 2026-05-07 23:51 | -2.60223 | -67.30792 | 36897 ft | 512 kts | 45° |
| 2026-05-07 23:51 | -2.55237 | -67.25761 | 36897 ft | 512 kts | 45° |
| 2026-05-07 23:52 | -2.50225 | -67.20704 | 36903 ft | 512 kts | 45° |
| 2026-05-07 23:52 | -2.45335 | -67.15527 | 36900 ft | 512 kts | 47° |
| 2026-05-07 23:53 | -2.40555 | -67.10244 | 36898 ft | 512 kts | 47° |
| 2026-05-07 23:53 | -2.35740 | -67.04976 | 36903 ft | 512 kts | 47° |
| 2026-05-07 23:54 | -2.30918 | -66.99728 | 36898 ft | 513 kts | 47° |
| 2026-05-07 23:54 | -2.26183 | -66.94396 | 36898 ft | 513 kts | 48° |
| 2026-05-07 23:55 | -2.21478 | -66.89041 | 36900 ft | 513 kts | 48° |
| 2026-05-07 23:55 | -2.16749 | -66.83686 | 36897 ft | 513 kts | 48° |
| 2026-05-07 23:56 | -2.12024 | -66.78345 | 36901 ft | 513 kts | 48° |
| 2026-05-07 23:56 | -2.07285 | -66.72991 | 36898 ft | 514 kts | 48° |
| 2026-05-07 23:57 | -2.02551 | -66.67643 | 36901 ft | 514 kts | 48° |
| 2026-05-07 23:57 | -1.97812 | -66.62294 | 36897 ft | 514 kts | 48° |
| 2026-05-07 23:58 | -1.93071 | -66.56941 | 36900 ft | 514 kts | 48° |
| 2026-05-07 23:58 | -1.88319 | -66.51582 | 36902 ft | 515 kts | 48° |
| 2026-05-07 23:59 | -1.83561 | -66.46233 | 36902 ft | 515 kts | 48° |
| 2026-05-07 23:59 | -1.78792 | -66.40872 | 36901 ft | 515 kts | 48° |
| 2026-05-08 00:00 | -1.74028 | -66.35514 | 36901 ft | 516 kts | 48° |
| 2026-05-08 00:00 | -1.69260 | -66.30153 | 36907 ft | 516 kts | 48° |
| 2026-05-08 00:01 | -1.64489 | -66.24789 | 36904 ft | 517 kts | 48° |
| 2026-05-08 00:01 | -1.59706 | -66.19411 | 36906 ft | 517 kts | 48° |
| 2026-05-08 00:02 | -1.54959 | -66.14075 | 36907 ft | 517 kts | 48° |
| 2026-05-08 00:02 | -1.50178 | -66.08701 | 36912 ft | 518 kts | 48° |
| 2026-05-08 00:03 | -1.45394 | -66.03323 | 36909 ft | 518 kts | 48° |
| 2026-05-08 00:03 | -1.40612 | -65.97948 | 36912 ft | 518 kts | 48° |
| 2026-05-08 00:04 | -1.35830 | -65.92574 | 36912 ft | 517 kts | 48° |
| 2026-05-08 00:04 | -1.31041 | -65.87193 | 36909 ft | 517 kts | 48° |
| 2026-05-08 00:05 | -1.26261 | -65.81821 | 36907 ft | 517 kts | 48° |
| 2026-05-08 00:05 | -1.21480 | -65.76449 | 36908 ft | 517 kts | 48° |
| 2026-05-08 00:06 | -1.16702 | -65.71081 | 36905 ft | 517 kts | 48° |
| 2026-05-08 00:06 | -1.11919 | -65.65706 | 36903 ft | 517 kts | 48° |
| 2026-05-08 00:07 | -1.07132 | -65.60328 | 36909 ft | 517 kts | 48° |
| 2026-05-08 00:07 | -1.02351 | -65.54956 | 36911 ft | 517 kts | 48° |
| 2026-05-08 00:08 | -0.97561 | -65.49576 | 36911 ft | 517 kts | 48° |
| 2026-05-08 00:08 | -0.92779 | -65.44210 | 36911 ft | 517 kts | 48° |
| 2026-05-08 00:09 | -0.87994 | -65.38843 | 36904 ft | 517 kts | 48° |
| 2026-05-08 00:09 | -0.83174 | -65.33558 | 36904 ft | 517 kts | 44° |
| 2026-05-08 00:10 | -0.78039 | -65.28534 | 36906 ft | 517 kts | 44° |
| 2026-05-08 00:10 | -0.72916 | -65.23488 | 36910 ft | 517 kts | 44° |
| 2026-05-08 00:11 | -0.67784 | -65.18435 | 36913 ft | 517 kts | 44° |
| 2026-05-08 00:11 | -0.62662 | -65.13393 | 36911 ft | 517 kts | 44° |
| 2026-05-08 00:12 | -0.57529 | -65.08340 | 36912 ft | 517 kts | 44° |
| 2026-05-08 00:12 | -0.52405 | -65.03296 | 36912 ft | 517 kts | 44° |
| 2026-05-08 00:13 | -0.47282 | -64.98253 | 36914 ft | 517 kts | 44° |
| 2026-05-08 00:13 | -0.42158 | -64.93209 | 36918 ft | 517 kts | 44° |
| 2026-05-08 00:14 | -0.37038 | -64.88170 | 36906 ft | 517 kts | 44° |
| 2026-05-08 00:14 | -0.31909 | -64.83122 | 36909 ft | 517 kts | 44° |
| 2026-05-08 00:15 | -0.26792 | -64.78085 | 36909 ft | 517 kts | 45° |
| 2026-05-08 00:15 | -0.21670 | -64.73044 | 36909 ft | 517 kts | 44° |
| 2026-05-08 00:16 | -0.16543 | -64.67998 | 36912 ft | 517 kts | 45° |
| 2026-05-08 00:16 | -0.11415 | -64.62951 | 36910 ft | 518 kts | 44° |
| 2026-05-08 00:17 | -0.06284 | -64.57901 | 36912 ft | 518 kts | 44° |
| 2026-05-08 00:17 | -0.01176 | -64.52874 | 36917 ft | 518 kts | 45° |
| 2026-05-08 00:18 | 0.03961 | -64.47819 | 36916 ft | 519 kts | 44° |
| 2026-05-08 00:18 | 0.09104 | -64.42759 | 36916 ft | 519 kts | 44° |
| 2026-05-08 00:19 | 0.14302 | -64.37740 | 36916 ft | 519 kts | 44° |
| 2026-05-08 00:19 | 0.19501 | -64.32734 | 36916 ft | 519 kts | 44° |
| 2026-05-08 00:20 | 0.24698 | -64.27720 | 36912 ft | 520 kts | 44° |
| 2026-05-08 00:20 | 0.29896 | -64.22700 | 36913 ft | 520 kts | 44° |
| 2026-05-08 00:21 | 0.35103 | -64.17671 | 36916 ft | 520 kts | 44° |
| 2026-05-08 00:21 | 0.40309 | -64.12643 | 36917 ft | 521 kts | 44° |
| 2026-05-08 00:22 | 0.45519 | -64.07612 | 36915 ft | 521 kts | 44° |
| 2026-05-08 00:22 | 0.50741 | -64.02568 | 36917 ft | 522 kts | 44° |
| 2026-05-08 00:23 | 0.55959 | -63.97530 | 36921 ft | 522 kts | 44° |
| 2026-05-08 00:23 | 0.61179 | -63.92488 | 36922 ft | 522 kts | 44° |
| 2026-05-08 00:24 | 0.66402 | -63.87443 | 36920 ft | 522 kts | 44° |
| 2026-05-08 00:24 | 0.71636 | -63.82388 | 36919 ft | 523 kts | 44° |
| 2026-05-08 00:25 | 0.76828 | -63.77372 | 36922 ft | 523 kts | 44° |
| 2026-05-08 00:25 | 0.82059 | -63.72320 | 36927 ft | 523 kts | 44° |
| 2026-05-08 00:26 | 0.87291 | -63.67266 | 36932 ft | 524 kts | 44° |
| 2026-05-08 00:26 | 0.92535 | -63.62200 | 36939 ft | 524 kts | 44° |
| 2026-05-08 00:27 | 0.97778 | -63.57136 | 36946 ft | 524 kts | 44° |
| 2026-05-08 00:27 | 1.03016 | -63.52075 | 36949 ft | 524 kts | 44° |
| 2026-05-08 00:28 | 1.08257 | -63.46988 | 36946 ft | 525 kts | 44° |
| 2026-05-08 00:28 | 1.13488 | -63.41890 | 36951 ft | 525 kts | 44° |
| 2026-05-08 00:29 | 1.17840 | -63.37654 | 36946 ft | 525 kts | 44° |
| 2026-05-08 00:29 | 1.23081 | -63.32564 | 36943 ft | 526 kts | 43° |
| 2026-05-08 00:30 | 1.28349 | -63.27495 | 36942 ft | 526 kts | 43° |
| 2026-05-08 00:30 | 1.33619 | -63.22421 | 36934 ft | 526 kts | 43° |
| 2026-05-08 00:31 | 1.38885 | -63.17346 | 36928 ft | 526 kts | 43° |
| 2026-05-08 00:31 | 1.44145 | -63.12275 | 36930 ft | 526 kts | 43° |
| 2026-05-08 00:32 | 1.49407 | -63.07201 | 36930 ft | 526 kts | 43° |
| 2026-05-08 00:32 | 1.54677 | -63.02120 | 36929 ft | 526 kts | 43° |
| 2026-05-08 00:33 | 1.59939 | -62.97047 | 36926 ft | 526 kts | 43° |
| 2026-05-08 00:33 | 1.65199 | -62.91974 | 36924 ft | 526 kts | 43° |
| 2026-05-08 00:34 | 1.70433 | -62.86927 | 36930 ft | 526 kts | 43° |
| 2026-05-08 00:34 | 1.75692 | -62.81855 | 36930 ft | 525 kts | 43° |
| 2026-05-08 00:35 | 1.80951 | -62.76783 | 36928 ft | 526 kts | 43° |
| 2026-05-08 00:35 | 1.86216 | -62.71703 | 36928 ft | 526 kts | 43° |
| 2026-05-08 00:36 | 1.91480 | -62.66625 | 36934 ft | 526 kts | 43° |
| 2026-05-08 00:36 | 1.96751 | -62.61540 | 36936 ft | 526 kts | 43° |
| 2026-05-08 00:37 | 2.02012 | -62.56463 | 36937 ft | 526 kts | 43° |
| 2026-05-08 00:38 | 2.09875 | -62.48876 | 36939 ft | 526 kts | 43° |
| 2026-05-08 00:38 | 2.15138 | -62.43796 | 36937 ft | 525 kts | 43° |
| 2026-05-08 00:39 | 2.20397 | -62.38720 | 36939 ft | 525 kts | 43° |
| 2026-05-08 00:39 | 2.25660 | -62.33666 | 36933 ft | 525 kts | 43° |
| 2026-05-08 00:40 | 2.30947 | -62.28613 | 36934 ft | 525 kts | 43° |
| 2026-05-08 00:40 | 2.36219 | -62.23560 | 36934 ft | 525 kts | 43° |
| 2026-05-08 00:41 | 2.41491 | -62.18503 | 36935 ft | 525 kts | 43° |
| 2026-05-08 00:41 | 2.46760 | -62.13448 | 36933 ft | 525 kts | 43° |
| 2026-05-08 00:42 | 2.52028 | -62.08394 | 36933 ft | 525 kts | 43° |
| 2026-05-08 00:42 | 2.57269 | -62.03365 | 36931 ft | 525 kts | 43° |
| 2026-05-08 00:43 | 2.62535 | -61.98312 | 36932 ft | 525 kts | 43° |
| 2026-05-08 00:43 | 2.67833 | -61.93228 | 36930 ft | 525 kts | 43° |
| 2026-05-08 00:44 | 2.73062 | -61.88208 | 36933 ft | 525 kts | 43° |
| 2026-05-08 00:44 | 2.78335 | -61.83147 | 36929 ft | 525 kts | 43° |
| 2026-05-08 00:45 | 2.83601 | -61.78091 | 36929 ft | 525 kts | 43° |
| 2026-05-08 00:45 | 2.88865 | -61.73034 | 36931 ft | 524 kts | 43° |
| 2026-05-08 00:46 | 2.94134 | -61.67974 | 36931 ft | 524 kts | 43° |
| 2026-05-08 00:46 | 2.99389 | -61.62930 | 36922 ft | 524 kts | 43° |
| 2026-05-08 00:47 | 3.04655 | -61.57874 | 36925 ft | 524 kts | 43° |
| 2026-05-08 00:47 | 3.09918 | -61.52819 | 36924 ft | 524 kts | 42° |
| 2026-05-08 00:48 | 3.15178 | -61.47766 | 36922 ft | 524 kts | 42° |
| 2026-05-08 00:48 | 3.20447 | -61.42704 | 36921 ft | 524 kts | 42° |
| 2026-05-08 00:49 | 3.25700 | -61.37657 | 36928 ft | 525 kts | 42° |
| 2026-05-08 00:49 | 3.30971 | -61.32591 | 36920 ft | 525 kts | 42° |
| 2026-05-08 00:50 | 3.36235 | -61.27532 | 36916 ft | 525 kts | 42° |
| 2026-05-08 00:50 | 3.41500 | -61.22470 | 36920 ft | 525 kts | 42° |
| 2026-05-08 00:51 | 3.46775 | -61.17399 | 36921 ft | 525 kts | 42° |
| 2026-05-08 00:51 | 3.52039 | -61.12337 | 36922 ft | 525 kts | 42° |
| 2026-05-08 00:52 | 3.57280 | -61.07296 | 36922 ft | 525 kts | 42° |
| 2026-05-08 00:52 | 3.62574 | -61.02203 | 36922 ft | 525 kts | 42° |
| 2026-05-08 00:53 | 3.67814 | -60.97150 | 36926 ft | 526 kts | 43° |
| 2026-05-08 00:53 | 3.73000 | -60.91988 | 36921 ft | 526 kts | 44° |
| 2026-05-08 00:54 | 3.78191 | -60.86810 | 36921 ft | 526 kts | 43° |
| 2026-05-08 00:54 | 3.83384 | -60.81650 | 36923 ft | 526 kts | 43° |
| 2026-05-08 00:55 | 3.88581 | -60.76494 | 36926 ft | 526 kts | 43° |
| 2026-05-08 00:55 | 3.93843 | -60.71388 | 36927 ft | 526 kts | 43° |
| 2026-05-08 00:56 | 3.99096 | -60.66304 | 36931 ft | 526 kts | 43° |
| 2026-05-08 00:56 | 4.04357 | -60.61196 | 36930 ft | 526 kts | 43° |
| 2026-05-08 00:57 | 4.09607 | -60.56095 | 36941 ft | 526 kts | 43° |
| 2026-05-08 00:57 | 4.14868 | -60.50981 | 36946 ft | 526 kts | 43° |
| 2026-05-08 00:58 | 4.20118 | -60.45878 | 36959 ft | 526 kts | 43° |
| 2026-05-08 00:58 | 4.25341 | -60.40800 | 36963 ft | 526 kts | 43° |
| 2026-05-08 00:59 | 4.30583 | -60.35701 | 36976 ft | 526 kts | 43° |
| 2026-05-08 00:59 | 4.35830 | -60.30598 | 36978 ft | 526 kts | 43° |
| 2026-05-08 01:00 | 4.41116 | -60.25455 | 36977 ft | 526 kts | 43° |
| 2026-05-08 01:00 | 4.46324 | -60.20387 | 36990 ft | 525 kts | 43° |
| 2026-05-08 01:01 | 4.51565 | -60.15285 | 36991 ft | 525 kts | 43° |
| 2026-05-08 01:01 | 4.56816 | -60.10195 | 36996 ft | 525 kts | 42° |
| 2026-05-08 01:02 | 4.62105 | -60.05146 | 37011 ft | 525 kts | 42° |
| 2026-05-08 01:02 | 4.67403 | -60.00082 | 37019 ft | 526 kts | 42° |
| 2026-05-08 01:03 | 4.72688 | -59.95021 | 37023 ft | 526 kts | 42° |
| 2026-05-08 01:03 | 4.77977 | -59.89953 | 37030 ft | 525 kts | 42° |
| 2026-05-08 01:04 | 4.83259 | -59.84891 | 37037 ft | 525 kts | 42° |
| 2026-05-08 01:04 | 4.88541 | -59.79828 | 37040 ft | 525 kts | 43° |
| 2026-05-08 01:05 | 4.93828 | -59.74759 | 37038 ft | 525 kts | 43° |
| 2026-05-08 01:05 | 4.99102 | -59.69700 | 37035 ft | 525 kts | 43° |
| 2026-05-08 01:06 | 5.04375 | -59.64643 | 37035 ft | 525 kts | 43° |
| 2026-05-08 01:06 | 5.09618 | -59.59612 | 37024 ft | 524 kts | 43° |
| 2026-05-08 01:07 | 5.14921 | -59.54522 | 37022 ft | 524 kts | 43° |
| 2026-05-08 01:07 | 5.20154 | -59.49500 | 37013 ft | 524 kts | 43° |
| 2026-05-08 01:08 | 5.25423 | -59.44444 | 37009 ft | 524 kts | 42° |
| 2026-05-08 01:08 | 5.30707 | -59.39390 | 37004 ft | 525 kts | 42° |
| 2026-05-08 01:09 | 5.35988 | -59.34338 | 36997 ft | 525 kts | 42° |
| 2026-05-08 01:09 | 5.41274 | -59.29277 | 36992 ft | 525 kts | 42° |
| 2026-05-08 01:10 | 5.46559 | -59.24216 | 36985 ft | 525 kts | 42° |
| 2026-05-08 01:10 | 5.51853 | -59.19145 | 36986 ft | 525 kts | 42° |
| 2026-05-08 01:11 | 5.57138 | -59.14080 | 36982 ft | 525 kts | 42° |
| 2026-05-08 01:11 | 5.62424 | -59.09015 | 36978 ft | 525 kts | 42° |
| 2026-05-08 01:12 | 5.67707 | -59.03949 | 36981 ft | 525 kts | 42° |
| 2026-05-08 01:12 | 5.72964 | -58.98909 | 36993 ft | 525 kts | 42° |
| 2026-05-08 01:13 | 5.78245 | -58.93843 | 36991 ft | 525 kts | 42° |
| 2026-05-08 01:13 | 5.83525 | -58.88777 | 36995 ft | 525 kts | 42° |
| 2026-05-08 01:14 | 5.88812 | -58.83703 | 36993 ft | 525 kts | 42° |
| 2026-05-08 01:14 | 5.94088 | -58.78638 | 36986 ft | 525 kts | 42° |
| 2026-05-08 01:15 | 5.99362 | -58.73573 | 36986 ft | 525 kts | 42° |
| 2026-05-08 01:15 | 6.04633 | -58.68511 | 36986 ft | 525 kts | 42° |
| 2026-05-08 01:16 | 6.09921 | -58.63450 | 36988 ft | 524 kts | 42° |
| 2026-05-08 01:16 | 6.15246 | -58.58445 | 36987 ft | 524 kts | 41° |
| 2026-05-08 01:17 | 6.20568 | -58.53438 | 36985 ft | 524 kts | 42° |
| 2026-05-08 01:17 | 6.24992 | -58.49268 | 36986 ft | 524 kts | 42° |
| 2026-05-08 01:18 | 6.30306 | -58.44254 | 36987 ft | 524 kts | 42° |
| 2026-05-08 01:18 | 6.35629 | -58.39231 | 36994 ft | 524 kts | 42° |
| 2026-05-08 01:19 | 6.40941 | -58.34215 | 36994 ft | 524 kts | 42° |
| 2026-05-08 01:19 | 6.46258 | -58.29195 | 36993 ft | 524 kts | 42° |
| 2026-05-08 01:20 | 6.51584 | -58.24198 | 36992 ft | 523 kts | 40° |
| 2026-05-08 01:20 | 6.57093 | -58.19417 | 36990 ft | 523 kts | 39° |
| 2026-05-08 01:21 | 6.62623 | -58.14639 | 36989 ft | 523 kts | 39° |
| 2026-05-08 01:21 | 6.68121 | -58.09840 | 36985 ft | 524 kts | 40° |
| 2026-05-08 01:22 | 6.73621 | -58.05028 | 36986 ft | 524 kts | 40° |
| 2026-05-08 01:22 | 6.79077 | -58.00251 | 36986 ft | 524 kts | 40° |
| 2026-05-08 01:23 | 6.84572 | -57.95440 | 36990 ft | 524 kts | 40° |
| 2026-05-08 01:23 | 6.90076 | -57.90619 | 36994 ft | 524 kts | 40° |
| 2026-05-08 01:24 | 6.95566 | -57.85809 | 36994 ft | 524 kts | 40° |
| 2026-05-08 01:24 | 7.01073 | -57.80983 | 36992 ft | 524 kts | 40° |
| 2026-05-08 01:25 | 7.06573 | -57.76162 | 36997 ft | 524 kts | 40° |
| 2026-05-08 01:25 | 7.12074 | -57.71337 | 36998 ft | 525 kts | 40° |
| 2026-05-08 01:26 | 7.17576 | -57.66510 | 36997 ft | 525 kts | 40° |
| 2026-05-08 01:26 | 7.23089 | -57.61673 | 36997 ft | 525 kts | 40° |
| 2026-05-08 01:27 | 7.28591 | -57.56843 | 36994 ft | 525 kts | 40° |
| 2026-05-08 01:27 | 7.34095 | -57.52009 | 36993 ft | 525 kts | 40° |
| 2026-05-08 01:28 | 7.39583 | -57.47206 | 36992 ft | 525 kts | 40° |
| 2026-05-08 01:28 | 7.45112 | -57.42392 | 36992 ft | 526 kts | 40° |
| 2026-05-08 01:29 | 7.50642 | -57.37572 | 37001 ft | 526 kts | 40° |
| 2026-05-08 01:29 | 7.56181 | -57.32739 | 36995 ft | 526 kts | 40° |
| 2026-05-08 01:30 | 7.61715 | -57.27908 | 36993 ft | 526 kts | 40° |
| 2026-05-08 01:30 | 7.67246 | -57.23078 | 36995 ft | 526 kts | 40° |
| 2026-05-08 01:31 | 7.72779 | -57.18244 | 36997 ft | 526 kts | 40° |
| 2026-05-08 01:31 | 7.78316 | -57.13406 | 36999 ft | 526 kts | 40° |
| 2026-05-08 01:32 | 7.83848 | -57.08570 | 36990 ft | 526 kts | 40° |
| 2026-05-08 01:32 | 7.89380 | -57.03733 | 36997 ft | 526 kts | 40° |
| 2026-05-08 01:33 | 7.94920 | -56.98886 | 36996 ft | 527 kts | 40° |
| 2026-05-08 01:33 | 8.00455 | -56.94043 | 36993 ft | 527 kts | 40° |
| 2026-05-08 01:34 | 8.05962 | -56.89222 | 36993 ft | 527 kts | 40° |
| 2026-05-08 01:34 | 8.11531 | -56.84346 | 36994 ft | 527 kts | 40° |
| 2026-05-08 01:35 | 8.17062 | -56.79501 | 36996 ft | 527 kts | 40° |
| 2026-05-08 01:35 | 8.22594 | -56.74653 | 36992 ft | 527 kts | 40° |
| 2026-05-08 01:36 | 8.28098 | -56.69828 | 36998 ft | 527 kts | 40° |
| 2026-05-08 01:36 | 8.33630 | -56.64977 | 37000 ft | 527 kts | 40° |
| 2026-05-08 01:37 | 8.39170 | -56.60116 | 36996 ft | 527 kts | 40° |
| 2026-05-08 01:37 | 8.44703 | -56.55259 | 36999 ft | 527 kts | 40° |
| 2026-05-08 01:38 | 8.50246 | -56.50393 | 36997 ft | 527 kts | 40° |
| 2026-05-08 01:38 | 8.55786 | -56.45527 | 36999 ft | 527 kts | 40° |
| 2026-05-08 01:39 | 8.61320 | -56.40663 | 37001 ft | 527 kts | 40° |
| 2026-05-08 01:39 | 8.66865 | -56.35789 | 37004 ft | 528 kts | 40° |
| 2026-05-08 01:40 | 8.72401 | -56.30920 | 37001 ft | 528 kts | 40° |
| 2026-05-08 01:40 | 8.77940 | -56.26047 | 37006 ft | 528 kts | 40° |
| 2026-05-08 01:41 | 8.83480 | -56.21170 | 37003 ft | 528 kts | 40° |
| 2026-05-08 01:41 | 8.89032 | -56.16282 | 37004 ft | 529 kts | 40° |
| 2026-05-08 01:42 | 8.94575 | -56.11399 | 36986 ft | 529 kts | 40° |
| 2026-05-08 01:42 | 9.00091 | -56.06538 | 36989 ft | 529 kts | 40° |
| 2026-05-08 01:43 | 9.05639 | -56.01647 | 36989 ft | 529 kts | 40° |
| 2026-05-08 01:43 | 9.11054 | -55.96609 | 36996 ft | 529 kts | 44° |
| 2026-05-08 01:44 | 9.16329 | -55.91409 | 37014 ft | 530 kts | 43° |
| 2026-05-08 01:44 | 9.21624 | -55.86207 | 37021 ft | 530 kts | 43° |
| 2026-05-08 01:45 | 9.26910 | -55.81009 | 37021 ft | 530 kts | 43° |
| 2026-05-08 01:45 | 9.32193 | -55.75810 | 37019 ft | 530 kts | 43° |
| 2026-05-08 01:46 | 9.37478 | -55.70605 | 37000 ft | 530 kts | 43° |
| 2026-05-08 01:46 | 9.42773 | -55.65389 | 36998 ft | 530 kts | 43° |
| 2026-05-08 01:47 | 9.48058 | -55.60179 | 36999 ft | 530 kts | 43° |
| 2026-05-08 01:47 | 9.53342 | -55.54968 | 36997 ft | 530 kts | 43° |
| 2026-05-08 01:48 | 9.61270 | -55.47144 | 37009 ft | 530 kts | 44° |
| 2026-05-08 01:48 | 9.66555 | -55.41926 | 37009 ft | 530 kts | 44° |
| 2026-05-08 01:49 | 9.71835 | -55.36710 | 37015 ft | 530 kts | 44° |
| 2026-05-08 01:49 | 9.77118 | -55.31488 | 37014 ft | 530 kts | 44° |
| 2026-05-08 01:50 | 9.82398 | -55.26267 | 37014 ft | 530 kts | 44° |
| 2026-05-08 01:50 | 9.87686 | -55.21036 | 37016 ft | 530 kts | 44° |
| 2026-05-08 01:51 | 9.92964 | -55.15812 | 37012 ft | 530 kts | 44° |
| 2026-05-08 01:51 | 9.98242 | -55.10586 | 37018 ft | 530 kts | 44° |
| 2026-05-08 01:52 | 10.03519 | -55.05358 | 37019 ft | 530 kts | 44° |
| 2026-05-08 01:52 | 10.08795 | -55.00129 | 37019 ft | 530 kts | 44° |
| 2026-05-08 01:53 | 10.14073 | -54.94895 | 37018 ft | 530 kts | 44° |
| 2026-05-08 01:53 | 10.19313 | -54.89697 | 37020 ft | 530 kts | 44° |
| 2026-05-08 01:54 | 10.24596 | -54.84453 | 37017 ft | 530 kts | 44° |
| 2026-05-08 01:54 | 10.29879 | -54.79207 | 37015 ft | 531 kts | 44° |
| 2026-05-08 01:55 | 10.35152 | -54.73966 | 37017 ft | 531 kts | 44° |
| 2026-05-08 01:55 | 10.40426 | -54.68724 | 37019 ft | 531 kts | 44° |
| 2026-05-08 01:56 | 10.45709 | -54.63470 | 37021 ft | 531 kts | 44° |
| 2026-05-08 01:56 | 10.50990 | -54.58215 | 37024 ft | 531 kts | 44° |
| 2026-05-08 01:57 | 10.56228 | -54.53000 | 37025 ft | 531 kts | 44° |
| 2026-05-08 01:57 | 10.61500 | -54.47749 | 37026 ft | 531 kts | 44° |
| 2026-05-08 01:58 | 10.66780 | -54.42487 | 37024 ft | 531 kts | 44° |
| 2026-05-08 01:58 | 10.72047 | -54.37236 | 37023 ft | 531 kts | 44° |
| 2026-05-08 01:59 | 10.77325 | -54.31970 | 37022 ft | 531 kts | 44° |
| 2026-05-08 01:59 | 10.82591 | -54.26714 | 37025 ft | 531 kts | 44° |
| 2026-05-08 02:00 | 10.87872 | -54.21440 | 37023 ft | 531 kts | 44° |
| 2026-05-08 02:00 | 10.93145 | -54.16171 | 37027 ft | 532 kts | 44° |
| 2026-05-08 02:01 | 10.98429 | -54.10889 | 37027 ft | 532 kts | 44° |
| 2026-05-08 02:01 | 11.03705 | -54.05611 | 37030 ft | 532 kts | 44° |
| 2026-05-08 02:02 | 11.08985 | -54.00328 | 37033 ft | 533 kts | 44° |
| 2026-05-08 02:02 | 11.14239 | -53.95067 | 37030 ft | 533 kts | 44° |
| 2026-05-08 02:03 | 11.19521 | -53.89775 | 37036 ft | 533 kts | 44° |
| 2026-05-08 02:03 | 11.24802 | -53.84482 | 37036 ft | 533 kts | 44° |
| 2026-05-08 02:04 | 11.30081 | -53.79187 | 37040 ft | 533 kts | 44° |
| 2026-05-08 02:04 | 11.35359 | -53.73891 | 37032 ft | 533 kts | 44° |
| 2026-05-08 02:05 | 11.40644 | -53.68584 | 37036 ft | 533 kts | 44° |
| 2026-05-08 02:05 | 11.45068 | -53.64141 | 37036 ft | 533 kts | 44° |
| 2026-05-08 02:06 | 11.50336 | -53.58846 | 37036 ft | 533 kts | 44° |
| 2026-05-08 02:06 | 11.55576 | -53.53576 | 37034 ft | 533 kts | 44° |
| 2026-05-08 02:07 | 11.60848 | -53.48272 | 37036 ft | 533 kts | 44° |
| 2026-05-08 02:07 | 11.66129 | -53.42956 | 37027 ft | 533 kts | 44° |
| 2026-05-08 02:08 | 11.71400 | -53.37646 | 37035 ft | 533 kts | 44° |
| 2026-05-08 02:08 | 11.76672 | -53.32333 | 37038 ft | 533 kts | 44° |
| 2026-05-08 02:09 | 11.81952 | -53.27008 | 37026 ft | 533 kts | 44° |
| 2026-05-08 02:09 | 11.87224 | -53.21688 | 37028 ft | 533 kts | 44° |
| 2026-05-08 02:10 | 11.92498 | -53.16364 | 37036 ft | 533 kts | 44° |
| 2026-05-08 02:10 | 11.97772 | -53.11036 | 37035 ft | 534 kts | 44° |
| 2026-05-08 02:11 | 12.02980 | -53.05772 | 37043 ft | 534 kts | 44° |
| 2026-05-08 02:11 | 12.08259 | -53.00433 | 37039 ft | 534 kts | 44° |
| 2026-05-08 02:12 | 12.13512 | -52.95118 | 37042 ft | 534 kts | 44° |
| 2026-05-08 02:12 | 12.18791 | -52.89772 | 37039 ft | 534 kts | 44° |
| 2026-05-08 02:13 | 12.24070 | -52.84424 | 37037 ft | 535 kts | 44° |
| 2026-05-08 02:13 | 12.29355 | -52.79066 | 37038 ft | 535 kts | 44° |
| 2026-05-08 02:14 | 12.34643 | -52.73702 | 37039 ft | 535 kts | 44° |
| 2026-05-08 02:14 | 12.39922 | -52.68344 | 37039 ft | 535 kts | 44° |
| 2026-05-08 02:15 | 12.45201 | -52.62982 | 37039 ft | 535 kts | 44° |
| 2026-05-08 02:15 | 12.50480 | -52.57618 | 37036 ft | 535 kts | 44° |
| 2026-05-08 02:16 | 12.55767 | -52.52242 | 37040 ft | 535 kts | 44° |
| 2026-05-08 02:16 | 12.61053 | -52.46863 | 37039 ft | 535 kts | 44° |
| 2026-05-08 02:17 | 12.66331 | -52.41491 | 37042 ft | 535 kts | 44° |
| 2026-05-08 02:17 | 12.71607 | -52.36116 | 37029 ft | 535 kts | 44° |
| 2026-05-08 02:18 | 12.76891 | -52.30729 | 37040 ft | 535 kts | 44° |
| 2026-05-08 02:18 | 12.82131 | -52.25385 | 37040 ft | 535 kts | 44° |
| 2026-05-08 02:19 | 12.87410 | -52.19996 | 37032 ft | 535 kts | 44° |
| 2026-05-08 02:19 | 12.92683 | -52.14611 | 37044 ft | 535 kts | 44° |
| 2026-05-08 02:20 | 12.97955 | -52.09224 | 37044 ft | 535 kts | 44° |
| 2026-05-08 02:20 | 13.03227 | -52.03833 | 37044 ft | 535 kts | 44° |
| 2026-05-08 02:21 | 13.08497 | -51.98441 | 37040 ft | 535 kts | 44° |
| 2026-05-08 02:21 | 13.13775 | -51.93038 | 37042 ft | 535 kts | 44° |
| 2026-05-08 02:22 | 13.19042 | -51.87641 | 37041 ft | 535 kts | 44° |
| 2026-05-08 02:22 | 13.24308 | -51.82243 | 37033 ft | 535 kts | 44° |
| 2026-05-08 02:23 | 13.29572 | -51.76843 | 37045 ft | 535 kts | 44° |
| 2026-05-08 02:23 | 13.34844 | -51.71431 | 37042 ft | 535 kts | 44° |
| 2026-05-08 02:24 | 13.40080 | -51.66052 | 37038 ft | 535 kts | 44° |
| 2026-05-08 02:24 | 13.45376 | -51.60609 | 37049 ft | 535 kts | 44° |
| 2026-05-08 02:25 | 13.50610 | -51.55226 | 37055 ft | 535 kts | 44° |
| 2026-05-08 02:25 | 13.55873 | -51.49810 | 37030 ft | 535 kts | 44° |
| 2026-05-08 02:26 | 13.61132 | -51.44394 | 37029 ft | 536 kts | 44° |
| 2026-05-08 02:26 | 13.66390 | -51.38975 | 37025 ft | 536 kts | 44° |
| 2026-05-08 02:27 | 13.71647 | -51.33553 | 37033 ft | 536 kts | 44° |
| 2026-05-08 02:27 | 13.76907 | -51.28125 | 37052 ft | 535 kts | 44° |
| 2026-05-08 02:28 | 13.82169 | -51.22691 | 37053 ft | 535 kts | 44° |
| 2026-05-08 02:28 | 13.87426 | -51.17258 | 37055 ft | 535 kts | 44° |
| 2026-05-08 02:29 | 13.92679 | -51.11827 | 37042 ft | 535 kts | 44° |
| 2026-05-08 02:29 | 13.97931 | -51.06392 | 37038 ft | 535 kts | 44° |
| 2026-05-08 02:30 | 14.03181 | -51.00956 | 37034 ft | 535 kts | 44° |
| 2026-05-08 02:30 | 14.08429 | -50.95517 | 37038 ft | 535 kts | 44° |
| 2026-05-08 02:31 | 14.13682 | -50.90071 | 37042 ft | 535 kts | 44° |
| 2026-05-08 02:31 | 14.18928 | -50.84628 | 37041 ft | 535 kts | 44° |
| 2026-05-08 02:32 | 14.24185 | -50.79169 | 37045 ft | 535 kts | 44° |
| 2026-05-08 02:32 | 14.29432 | -50.73717 | 37047 ft | 535 kts | 44° |
| 2026-05-08 02:33 | 14.34674 | -50.68266 | 37050 ft | 535 kts | 44° |
| 2026-05-08 02:33 | 14.39915 | -50.62812 | 37049 ft | 535 kts | 44° |
| 2026-05-08 02:34 | 14.45129 | -50.57384 | 37046 ft | 535 kts | 44° |
| 2026-05-08 02:34 | 14.50367 | -50.51925 | 37052 ft | 535 kts | 44° |
| 2026-05-08 02:35 | 14.55603 | -50.46465 | 37049 ft | 535 kts | 44° |
| 2026-05-08 02:35 | 14.60845 | -50.40994 | 37050 ft | 535 kts | 44° |
| 2026-05-08 02:36 | 14.66076 | -50.35532 | 37048 ft | 535 kts | 44° |
| 2026-05-08 02:36 | 14.71304 | -50.30069 | 37047 ft | 535 kts | 44° |
| 2026-05-08 02:37 | 14.76530 | -50.24604 | 37046 ft | 535 kts | 44° |
| 2026-05-08 02:37 | 14.81754 | -50.19139 | 37047 ft | 535 kts | 44° |
| 2026-05-08 02:38 | 14.86985 | -50.13664 | 37046 ft | 534 kts | 44° |
| 2026-05-08 02:38 | 14.92205 | -50.08196 | 37052 ft | 534 kts | 44° |
| 2026-05-08 02:39 | 14.97423 | -50.02725 | 37052 ft | 534 kts | 44° |
| 2026-05-08 02:39 | 15.02355 | -49.96961 | 37050 ft | 535 kts | 51° |
| 2026-05-08 02:40 | 15.06973 | -49.90925 | 37047 ft | 535 kts | 50° |
| 2026-05-08 02:40 | 15.11618 | -49.84910 | 37047 ft | 535 kts | 50° |
| 2026-05-08 02:41 | 15.16255 | -49.78890 | 37053 ft | 535 kts | 50° |
| 2026-05-08 02:41 | 15.20829 | -49.72939 | 37050 ft | 535 kts | 50° |
| 2026-05-08 02:42 | 15.25455 | -49.66914 | 37050 ft | 535 kts | 51° |
| 2026-05-08 02:42 | 15.30054 | -49.60918 | 37051 ft | 534 kts | 51° |
| 2026-05-08 02:43 | 15.34673 | -49.54893 | 37050 ft | 534 kts | 51° |
| 2026-05-08 02:43 | 15.39295 | -49.48858 | 37048 ft | 534 kts | 51° |
| 2026-05-08 02:44 | 15.43908 | -49.42830 | 37048 ft | 533 kts | 51° |
| 2026-05-08 02:44 | 15.48515 | -49.36806 | 37049 ft | 533 kts | 51° |
| 2026-05-08 02:45 | 15.53125 | -49.30772 | 37044 ft | 533 kts | 51° |
| 2026-05-08 02:45 | 15.57725 | -49.24747 | 37049 ft | 533 kts | 51° |
| 2026-05-08 02:46 | 15.62322 | -49.18721 | 37045 ft | 533 kts | 51° |
| 2026-05-08 02:46 | 15.66894 | -49.12722 | 37047 ft | 533 kts | 51° |
| 2026-05-08 02:47 | 15.71487 | -49.06692 | 37045 ft | 533 kts | 51° |
| 2026-05-08 02:47 | 15.76078 | -49.00660 | 37049 ft | 533 kts | 51° |
| 2026-05-08 02:48 | 15.80673 | -48.94617 | 37049 ft | 532 kts | 51° |
| 2026-05-08 02:48 | 15.85260 | -48.88579 | 37051 ft | 532 kts | 51° |
| 2026-05-08 02:49 | 15.89841 | -48.82545 | 37052 ft | 532 kts | 51° |
| 2026-05-08 02:49 | 15.94419 | -48.76510 | 37050 ft | 532 kts | 51° |
| 2026-05-08 02:50 | 15.99001 | -48.70464 | 37047 ft | 532 kts | 51° |
| 2026-05-08 02:50 | 16.03549 | -48.64458 | 37047 ft | 531 kts | 51° |
| 2026-05-08 02:51 | 16.08120 | -48.58416 | 37050 ft | 531 kts | 51° |
| 2026-05-08 02:51 | 16.12687 | -48.52376 | 37052 ft | 531 kts | 51° |
| 2026-05-08 02:52 | 16.17251 | -48.46334 | 37053 ft | 531 kts | 51° |
| 2026-05-08 02:52 | 16.21046 | -48.41306 | 37052 ft | 531 kts | 51° |
| 2026-05-08 02:53 | 16.25604 | -48.35263 | 37050 ft | 531 kts | 51° |
| 2026-05-08 02:53 | 16.30912 | -48.28219 | 37049 ft | 531 kts | 51° |
| 2026-05-08 02:54 | 16.34729 | -48.23150 | 37049 ft | 531 kts | 51° |
| 2026-05-08 02:54 | 16.39278 | -48.17103 | 37049 ft | 530 kts | 51° |
| 2026-05-08 02:55 | 16.46069 | -48.08066 | 37045 ft | 530 kts | 51° |
| 2026-05-08 02:56 | 16.50604 | -48.02026 | 37047 ft | 530 kts | 51° |
| 2026-05-08 02:56 | 16.55159 | -47.95953 | 37045 ft | 530 kts | 51° |
| 2026-05-08 02:57 | 16.59698 | -47.89896 | 37049 ft | 530 kts | 51° |
| 2026-05-08 02:57 | 16.64243 | -47.83827 | 37053 ft | 530 kts | 51° |
| 2026-05-08 02:58 | 16.68779 | -47.77765 | 37052 ft | 530 kts | 51° |
| 2026-05-08 02:58 | 16.73318 | -47.71692 | 37055 ft | 530 kts | 51° |
| 2026-05-08 02:59 | 16.77846 | -47.65630 | 37053 ft | 530 kts | 51° |
| 2026-05-08 02:59 | 16.82348 | -47.59597 | 37056 ft | 530 kts | 51° |
| 2026-05-08 03:00 | 16.86871 | -47.53531 | 37055 ft | 529 kts | 51° |
| 2026-05-08 03:00 | 16.91390 | -47.47465 | 37048 ft | 529 kts | 51° |
| 2026-05-08 03:01 | 16.95911 | -47.41389 | 37055 ft | 529 kts | 51° |
| 2026-05-08 03:01 | 17.00427 | -47.35316 | 37054 ft | 529 kts | 51° |
| 2026-05-08 03:02 | 17.04938 | -47.29245 | 37054 ft | 529 kts | 51° |
| 2026-05-08 03:02 | 17.09448 | -47.23170 | 37053 ft | 529 kts | 51° |
| 2026-05-08 03:03 | 17.13958 | -47.17088 | 37054 ft | 529 kts | 51° |
| 2026-05-08 03:03 | 17.18469 | -47.11000 | 37058 ft | 529 kts | 51° |
| 2026-05-08 03:04 | 17.22973 | -47.04917 | 37061 ft | 529 kts | 51° |
| 2026-05-08 03:04 | 17.27480 | -46.98823 | 37054 ft | 529 kts | 51° |
| 2026-05-08 03:05 | 17.31977 | -46.92738 | 37055 ft | 529 kts | 51° |
| 2026-05-08 03:05 | 17.36449 | -46.86681 | 37052 ft | 529 kts | 51° |
| 2026-05-08 03:06 | 17.40971 | -46.80552 | 37052 ft | 528 kts | 51° |
| 2026-05-08 03:06 | 17.45431 | -46.74501 | 37053 ft | 528 kts | 51° |
| 2026-05-08 03:07 | 17.49923 | -46.68400 | 37053 ft | 528 kts | 51° |
| 2026-05-08 03:07 | 17.54407 | -46.62305 | 37053 ft | 528 kts | 51° |
| 2026-05-08 03:08 | 17.58891 | -46.56205 | 37055 ft | 528 kts | 51° |
| 2026-05-08 03:08 | 17.63382 | -46.50088 | 37059 ft | 528 kts | 51° |
| 2026-05-08 03:09 | 17.67865 | -46.43978 | 37060 ft | 528 kts | 51° |
| 2026-05-08 03:09 | 17.72345 | -46.37867 | 37059 ft | 528 kts | 51° |
| 2026-05-08 03:10 | 17.76825 | -46.31749 | 37057 ft | 528 kts | 51° |
| 2026-05-08 03:10 | 17.81264 | -46.25681 | 37054 ft | 528 kts | 51° |
| 2026-05-08 03:11 | 17.85731 | -46.19571 | 37057 ft | 527 kts | 51° |
| 2026-05-08 03:11 | 17.90192 | -46.13463 | 37054 ft | 527 kts | 51° |
| 2026-05-08 03:12 | 17.94652 | -46.07354 | 37055 ft | 527 kts | 51° |
| 2026-05-08 03:12 | 17.99108 | -46.01245 | 37057 ft | 527 kts | 51° |
| 2026-05-08 03:13 | 18.03949 | -45.95480 | 37058 ft | 525 kts | 45° |
| 2026-05-08 03:13 | 18.08905 | -45.89833 | 37056 ft | 525 kts | 46° |
| 2026-05-08 03:14 | 18.13858 | -45.84176 | 37060 ft | 525 kts | 46° |
| 2026-05-08 03:14 | 18.18801 | -45.78526 | 37059 ft | 525 kts | 46° |
| 2026-05-08 03:15 | 18.23742 | -45.72872 | 37059 ft | 525 kts | 46° |
| 2026-05-08 03:15 | 18.28691 | -45.67205 | 37058 ft | 525 kts | 46° |
| 2026-05-08 03:16 | 18.33630 | -45.61542 | 37061 ft | 525 kts | 46° |
| 2026-05-08 03:16 | 18.38567 | -45.55874 | 37065 ft | 525 kts | 46° |
| 2026-05-08 03:17 | 18.43504 | -45.50201 | 37065 ft | 526 kts | 46° |
| 2026-05-08 03:17 | 18.48448 | -45.44515 | 37066 ft | 526 kts | 46° |
| 2026-05-08 03:18 | 18.53350 | -45.38873 | 37064 ft | 526 kts | 46° |
| 2026-05-08 03:18 | 18.58288 | -45.33184 | 37067 ft | 526 kts | 46° |
| 2026-05-08 03:19 | 18.63219 | -45.27497 | 37066 ft | 526 kts | 46° |
| 2026-05-08 03:19 | 18.68149 | -45.21806 | 37067 ft | 526 kts | 46° |
| 2026-05-08 03:20 | 18.73085 | -45.16104 | 37069 ft | 526 kts | 46° |
| 2026-05-08 03:20 | 18.78011 | -45.10407 | 37069 ft | 526 kts | 46° |
| 2026-05-08 03:21 | 18.82943 | -45.04698 | 37065 ft | 526 kts | 46° |
| 2026-05-08 03:21 | 18.87866 | -44.98995 | 37067 ft | 526 kts | 46° |
| 2026-05-08 03:22 | 18.92754 | -44.93325 | 37067 ft | 526 kts | 46° |
| 2026-05-08 03:22 | 18.97707 | -44.87576 | 37070 ft | 526 kts | 46° |
| 2026-05-08 03:23 | 19.02594 | -44.81898 | 37068 ft | 526 kts | 46° |
| 2026-05-08 03:23 | 19.07513 | -44.76177 | 37072 ft | 526 kts | 46° |
| 2026-05-08 03:24 | 19.12439 | -44.70443 | 37067 ft | 526 kts | 46° |
| 2026-05-08 03:24 | 19.17355 | -44.64714 | 37072 ft | 526 kts | 46° |
| 2026-05-08 03:25 | 19.22271 | -44.58981 | 37070 ft | 526 kts | 46° |
| 2026-05-08 03:25 | 19.27194 | -44.53233 | 37069 ft | 526 kts | 46° |
| 2026-05-08 03:26 | 19.32109 | -44.47490 | 37076 ft | 526 kts | 46° |
| 2026-05-08 03:26 | 19.37022 | -44.41743 | 37071 ft | 527 kts | 46° |
| 2026-05-08 03:27 | 19.41936 | -44.35990 | 37074 ft | 527 kts | 46° |
| 2026-05-08 03:27 | 19.46857 | -44.30222 | 37079 ft | 527 kts | 46° |
| 2026-05-08 03:28 | 19.51770 | -44.24459 | 37075 ft | 527 kts | 46° |
| 2026-05-08 03:28 | 19.56655 | -44.18722 | 37078 ft | 527 kts | 46° |
| 2026-05-08 03:29 | 19.61570 | -44.12945 | 37073 ft | 527 kts | 46° |
| 2026-05-08 03:29 | 19.66483 | -44.07165 | 37079 ft | 528 kts | 46° |
| 2026-05-08 03:30 | 19.73854 | -43.98481 | 37076 ft | 528 kts | 46° |
| 2026-05-08 03:31 | 19.83502 | -43.87095 | 37075 ft | 528 kts | 46° |
| 2026-05-08 03:32 | 19.90862 | -43.78395 | 37079 ft | 528 kts | 47° |
| 2026-05-08 03:32 | 19.95778 | -43.72576 | 37078 ft | 528 kts | 47° |
| 2026-05-08 03:33 | 20.00685 | -43.66763 | 37078 ft | 528 kts | 47° |
| 2026-05-08 03:33 | 20.05591 | -43.60944 | 37079 ft | 528 kts | 47° |
| 2026-05-08 03:34 | 20.10495 | -43.55122 | 37076 ft | 529 kts | 47° |
| 2026-05-08 03:34 | 20.15397 | -43.49296 | 37075 ft | 529 kts | 47° |
| 2026-05-08 03:35 | 20.20304 | -43.43459 | 37078 ft | 529 kts | 47° |
| 2026-05-08 03:35 | 20.25178 | -43.37654 | 37081 ft | 529 kts | 47° |
| 2026-05-08 03:36 | 20.30077 | -43.31815 | 37079 ft | 529 kts | 47° |
| 2026-05-08 03:36 | 20.34974 | -43.25970 | 37076 ft | 529 kts | 47° |
| 2026-05-08 03:37 | 20.39879 | -43.20111 | 37079 ft | 529 kts | 47° |
| 2026-05-08 03:37 | 20.44776 | -43.14256 | 37081 ft | 529 kts | 47° |
| 2026-05-08 03:38 | 20.49674 | -43.08393 | 37081 ft | 529 kts | 47° |
| 2026-05-08 03:38 | 20.54573 | -43.02524 | 37078 ft | 530 kts | 47° |
| 2026-05-08 03:39 | 20.59468 | -42.96652 | 37081 ft | 530 kts | 47° |
| 2026-05-08 03:39 | 20.64373 | -42.90762 | 37084 ft | 530 kts | 47° |
| 2026-05-08 03:40 | 20.69265 | -42.84882 | 37082 ft | 530 kts | 47° |
| 2026-05-08 03:40 | 20.74158 | -42.78994 | 37080 ft | 530 kts | 47° |
| 2026-05-08 03:41 | 20.79050 | -42.73101 | 37084 ft | 530 kts | 47° |
| 2026-05-08 03:41 | 20.83916 | -42.67233 | 37087 ft | 530 kts | 47° |
| 2026-05-08 03:42 | 20.88804 | -42.61332 | 37083 ft | 530 kts | 47° |
| 2026-05-08 03:42 | 20.93700 | -42.55417 | 37081 ft | 530 kts | 47° |
| 2026-05-08 03:43 | 20.98584 | -42.49508 | 37082 ft | 530 kts | 47° |
| 2026-05-08 03:43 | 21.02647 | -42.44589 | 37081 ft | 530 kts | 47° |
| 2026-05-08 03:44 | 21.07528 | -42.38672 | 37083 ft | 530 kts | 47° |
| 2026-05-08 03:44 | 21.12417 | -42.32741 | 37065 ft | 530 kts | 47° |
| 2026-05-08 03:45 | 21.17295 | -42.26815 | 37085 ft | 531 kts | 47° |
| 2026-05-08 03:45 | 21.22173 | -42.20883 | 37088 ft | 531 kts | 47° |
| 2026-05-08 03:46 | 21.27049 | -42.14947 | 37092 ft | 531 kts | 47° |
| 2026-05-08 03:46 | 21.31926 | -42.09003 | 37090 ft | 531 kts | 47° |
| 2026-05-08 03:47 | 21.36793 | -42.03066 | 37100 ft | 531 kts | 47° |
| 2026-05-08 03:47 | 21.41670 | -41.97110 | 37102 ft | 531 kts | 47° |
| 2026-05-08 03:48 | 21.46546 | -41.91148 | 37103 ft | 531 kts | 47° |
| 2026-05-08 03:48 | 21.51420 | -41.85182 | 37100 ft | 531 kts | 47° |
| 2026-05-08 03:49 | 21.56282 | -41.79224 | 37077 ft | 531 kts | 47° |
| 2026-05-08 03:49 | 21.61118 | -41.73293 | 37078 ft | 531 kts | 47° |
| 2026-05-08 03:50 | 21.66009 | -41.67286 | 37082 ft | 531 kts | 47° |
| 2026-05-08 03:50 | 21.70843 | -41.61342 | 37088 ft | 531 kts | 47° |
| 2026-05-08 03:51 | 21.75737 | -41.55319 | 37106 ft | 531 kts | 47° |
| 2026-05-08 03:51 | 21.80598 | -41.49328 | 37111 ft | 531 kts | 47° |
| 2026-05-08 03:52 | 21.85433 | -41.43364 | 37091 ft | 531 kts | 47° |
| 2026-05-08 03:52 | 21.90289 | -41.37368 | 37088 ft | 531 kts | 47° |
| 2026-05-08 03:53 | 21.95142 | -41.31367 | 37092 ft | 531 kts | 47° |
| 2026-05-08 03:53 | 22.00001 | -41.25353 | 37089 ft | 531 kts | 47° |
| 2026-05-08 03:54 | 22.04850 | -41.19344 | 37090 ft | 531 kts | 47° |
| 2026-05-08 03:54 | 22.09706 | -41.13319 | 37089 ft | 532 kts | 47° |
| 2026-05-08 03:55 | 22.14552 | -41.07300 | 37094 ft | 532 kts | 47° |
| 2026-05-08 03:55 | 22.19398 | -41.01274 | 37096 ft | 532 kts | 47° |
| 2026-05-08 03:56 | 22.24251 | -40.95233 | 37101 ft | 532 kts | 47° |
| 2026-05-08 03:56 | 22.29104 | -40.89186 | 37097 ft | 532 kts | 47° |
| 2026-05-08 03:57 | 22.33946 | -40.83144 | 37101 ft | 532 kts | 47° |
| 2026-05-08 03:57 | 22.38785 | -40.77099 | 37102 ft | 532 kts | 47° |
| 2026-05-08 03:58 | 22.43624 | -40.71047 | 37102 ft | 532 kts | 47° |
| 2026-05-08 03:58 | 22.48447 | -40.65008 | 37098 ft | 532 kts | 47° |
| 2026-05-08 03:59 | 22.53258 | -40.58977 | 37105 ft | 532 kts | 47° |
| 2026-05-08 03:59 | 22.58085 | -40.52918 | 37102 ft | 532 kts | 48° |
| 2026-05-08 04:00 | 22.62910 | -40.46856 | 37106 ft | 532 kts | 48° |
| 2026-05-08 04:00 | 22.67740 | -40.40781 | 37100 ft | 532 kts | 48° |
| 2026-05-08 04:01 | 22.72562 | -40.34707 | 37099 ft | 532 kts | 48° |
| 2026-05-08 04:01 | 22.77389 | -40.28621 | 37105 ft | 533 kts | 48° |
| 2026-05-08 04:02 | 22.82211 | -40.22536 | 37112 ft | 532 kts | 48° |
| 2026-05-08 04:02 | 22.87036 | -40.16442 | 37105 ft | 531 kts | 48° |
| 2026-05-08 04:03 | 22.91848 | -40.10358 | 37105 ft | 532 kts | 48° |
| 2026-05-08 04:03 | 22.99054 | -40.01232 | 37102 ft | 530 kts | 48° |
| 2026-05-08 04:04 | 23.03812 | -39.95130 | 37102 ft | 529 kts | 49° |
| 2026-05-08 04:04 | 23.08540 | -39.88995 | 37098 ft | 529 kts | 48° |
| 2026-05-08 04:05 | 23.13236 | -39.82928 | 37100 ft | 528 kts | 48° |
| 2026-05-08 04:05 | 23.17962 | -39.76829 | 37096 ft | 528 kts | 48° |
| 2026-05-08 04:06 | 23.22684 | -39.70730 | 37094 ft | 527 kts | 48° |
| 2026-05-08 04:06 | 23.27402 | -39.64629 | 37093 ft | 527 kts | 48° |
| 2026-05-08 04:07 | 23.32117 | -39.58523 | 37097 ft | 526 kts | 48° |
| 2026-05-08 04:07 | 23.36822 | -39.52422 | 37096 ft | 526 kts | 48° |
| 2026-05-08 04:08 | 23.41525 | -39.46316 | 37099 ft | 526 kts | 48° |
| 2026-05-08 04:08 | 23.46224 | -39.40205 | 37099 ft | 526 kts | 48° |
| 2026-05-08 04:09 | 23.50920 | -39.34089 | 37109 ft | 526 kts | 48° |
| 2026-05-08 04:09 | 23.55617 | -39.27965 | 37112 ft | 527 kts | 48° |
| 2026-05-08 04:10 | 23.60323 | -39.21821 | 37115 ft | 527 kts | 48° |
| 2026-05-08 04:10 | 23.65021 | -39.15680 | 37122 ft | 528 kts | 48° |
| 2026-05-08 04:11 | 23.69723 | -39.09525 | 37126 ft | 528 kts | 48° |
| 2026-05-08 04:11 | 23.74386 | -39.03415 | 37127 ft | 527 kts | 48° |
| 2026-05-08 04:12 | 23.79075 | -38.97262 | 37131 ft | 527 kts | 48° |
| 2026-05-08 04:12 | 23.83759 | -38.91110 | 37134 ft | 527 kts | 48° |
| 2026-05-08 04:13 | 23.88444 | -38.84947 | 37132 ft | 526 kts | 48° |
| 2026-05-08 04:13 | 23.93114 | -38.78797 | 37128 ft | 526 kts | 48° |
| 2026-05-08 04:14 | 23.97779 | -38.72646 | 37126 ft | 525 kts | 48° |
| 2026-05-08 04:14 | 24.02437 | -38.66497 | 37123 ft | 525 kts | 48° |
| 2026-05-08 04:15 | 24.07094 | -38.60341 | 37125 ft | 525 kts | 48° |
| 2026-05-08 04:15 | 24.11743 | -38.54187 | 37126 ft | 524 kts | 48° |
| 2026-05-08 04:16 | 24.16387 | -38.48033 | 37130 ft | 524 kts | 48° |
| 2026-05-08 04:16 | 24.21034 | -38.41867 | 37127 ft | 524 kts | 48° |
| 2026-05-08 04:17 | 24.25670 | -38.35708 | 37133 ft | 524 kts | 48° |
| 2026-05-08 04:17 | 24.30302 | -38.29547 | 37131 ft | 524 kts | 48° |
| 2026-05-08 04:18 | 24.34934 | -38.23377 | 37132 ft | 523 kts | 48° |
| 2026-05-08 04:18 | 24.39526 | -38.17254 | 37134 ft | 523 kts | 48° |
| 2026-05-08 04:19 | 24.44144 | -38.11087 | 37134 ft | 523 kts | 48° |
| 2026-05-08 04:19 | 24.48757 | -38.04920 | 37132 ft | 523 kts | 48° |
| 2026-05-08 04:20 | 24.53365 | -37.98750 | 37134 ft | 523 kts | 48° |
| 2026-05-08 04:20 | 24.57977 | -37.92569 | 37140 ft | 522 kts | 48° |
| 2026-05-08 04:21 | 24.62576 | -37.86396 | 37119 ft | 522 kts | 47° |
| 2026-05-08 04:21 | 24.67179 | -37.80210 | 37121 ft | 522 kts | 47° |
| 2026-05-08 04:22 | 24.71770 | -37.74032 | 37124 ft | 522 kts | 47° |
| 2026-05-08 04:22 | 24.76357 | -37.67852 | 37126 ft | 522 kts | 47° |
| 2026-05-08 04:23 | 24.80939 | -37.61670 | 37132 ft | 521 kts | 47° |
| 2026-05-08 04:23 | 24.85517 | -37.55487 | 37151 ft | 521 kts | 47° |
| 2026-05-08 04:24 | 24.90067 | -37.49333 | 37155 ft | 521 kts | 47° |
| 2026-05-08 04:24 | 24.94634 | -37.43147 | 37146 ft | 520 kts | 47° |
| 2026-05-08 04:25 | 24.99196 | -37.36962 | 37139 ft | 520 kts | 47° |
| 2026-05-08 04:25 | 25.03748 | -37.30780 | 37139 ft | 520 kts | 47° |
| 2026-05-08 04:26 | 25.08305 | -37.24584 | 37140 ft | 519 kts | 47° |
| 2026-05-08 04:26 | 25.12849 | -37.18398 | 37137 ft | 519 kts | 47° |
| 2026-05-08 04:27 | 25.17393 | -37.12204 | 37142 ft | 519 kts | 47° |
| 2026-05-08 04:27 | 25.21927 | -37.06015 | 37137 ft | 518 kts | 47° |
| 2026-05-08 04:28 | 25.26464 | -36.99814 | 37146 ft | 518 kts | 47° |
| 2026-05-08 04:28 | 25.30986 | -36.93626 | 37143 ft | 518 kts | 47° |
| 2026-05-08 04:29 | 25.35513 | -36.87422 | 37147 ft | 517 kts | 47° |
| 2026-05-08 04:29 | 25.40027 | -36.81228 | 37149 ft | 517 kts | 47° |
| 2026-05-08 04:30 | 25.44536 | -36.75033 | 37151 ft | 517 kts | 47° |
| 2026-05-08 04:30 | 25.48282 | -36.69879 | 37145 ft | 517 kts | 47° |
| 2026-05-08 04:31 | 25.52781 | -36.63683 | 37149 ft | 516 kts | 47° |
| 2026-05-08 04:31 | 25.58005 | -36.56477 | 37150 ft | 516 kts | 47° |
| 2026-05-08 04:32 | 25.61760 | -36.51290 | 37151 ft | 516 kts | 47° |
| 2026-05-08 04:32 | 25.66973 | -36.44080 | 37150 ft | 515 kts | 47° |
| 2026-05-08 04:33 | 25.70728 | -36.38881 | 37150 ft | 515 kts | 47° |
| 2026-05-08 04:33 | 25.75203 | -36.32676 | 37152 ft | 515 kts | 47° |
| 2026-05-08 04:34 | 25.79670 | -36.26473 | 37154 ft | 514 kts | 47° |
| 2026-05-08 04:34 | 25.84154 | -36.20244 | 37151 ft | 527 kts | 48° |
| 2026-05-08 04:35 | 25.88792 | -36.13791 | 37150 ft | 536 kts | 48° |
| 2026-05-08 04:35 | 25.93420 | -36.07332 | 37152 ft | 535 kts | 48° |
| 2026-05-08 04:36 | 25.98061 | -36.00852 | 37152 ft | 535 kts | 48° |
| 2026-05-08 04:36 | 26.02695 | -35.94373 | 37155 ft | 536 kts | 48° |
| 2026-05-08 04:37 | 26.07328 | -35.87887 | 37150 ft | 536 kts | 48° |
| 2026-05-08 04:37 | 26.11959 | -35.81393 | 37154 ft | 536 kts | 48° |
| 2026-05-08 04:38 | 26.16588 | -35.74894 | 37157 ft | 536 kts | 48° |
| 2026-05-08 04:38 | 26.21221 | -35.68380 | 37156 ft | 536 kts | 48° |
| 2026-05-08 04:39 | 26.25850 | -35.61861 | 37160 ft | 536 kts | 48° |
| 2026-05-08 04:39 | 26.30484 | -35.55328 | 37160 ft | 537 kts | 48° |
| 2026-05-08 04:40 | 26.35077 | -35.48841 | 37161 ft | 537 kts | 47° |
| 2026-05-08 04:40 | 26.39731 | -35.42260 | 37162 ft | 537 kts | 47° |
| 2026-05-08 04:41 | 26.44354 | -35.35712 | 37163 ft | 537 kts | 47° |
| 2026-05-08 04:41 | 26.48945 | -35.29201 | 37164 ft | 537 kts | 47° |
| 2026-05-08 04:42 | 26.53565 | -35.22640 | 37162 ft | 537 kts | 47° |
| 2026-05-08 04:42 | 26.58182 | -35.16073 | 37163 ft | 537 kts | 47° |
| 2026-05-08 04:43 | 26.62791 | -35.09507 | 37161 ft | 537 kts | 47° |
| 2026-05-08 04:43 | 26.67404 | -35.02927 | 37165 ft | 538 kts | 47° |
| 2026-05-08 04:44 | 26.72020 | -34.96333 | 37168 ft | 538 kts | 47° |
| 2026-05-08 04:44 | 26.76625 | -34.89744 | 37151 ft | 538 kts | 47° |
| 2026-05-08 04:45 | 26.81227 | -34.83149 | 37152 ft | 538 kts | 47° |
| 2026-05-08 04:45 | 26.85827 | -34.76549 | 37153 ft | 538 kts | 47° |
| 2026-05-08 04:46 | 26.90432 | -34.69931 | 37161 ft | 538 kts | 47° |
| 2026-05-08 04:46 | 26.95019 | -34.63330 | 37164 ft | 538 kts | 47° |
| 2026-05-08 04:47 | 26.99620 | -34.56699 | 37165 ft | 538 kts | 47° |
| 2026-05-08 04:47 | 27.04210 | -34.50072 | 37169 ft | 538 kts | 47° |
| 2026-05-08 04:48 | 27.08800 | -34.43437 | 37171 ft | 538 kts | 47° |
| 2026-05-08 04:48 | 27.13390 | -34.36791 | 37171 ft | 539 kts | 47° |
| 2026-05-08 04:49 | 27.17977 | -34.30141 | 37172 ft | 539 kts | 47° |
| 2026-05-08 04:49 | 27.22566 | -34.23475 | 37171 ft | 539 kts | 47° |
| 2026-05-08 04:50 | 27.27157 | -34.16799 | 37173 ft | 539 kts | 47° |
| 2026-05-08 04:50 | 27.31737 | -34.10128 | 37172 ft | 539 kts | 47° |
| 2026-05-08 04:51 | 27.36312 | -34.03454 | 37168 ft | 539 kts | 47° |
| 2026-05-08 04:51 | 27.40895 | -33.96758 | 37170 ft | 539 kts | 47° |
| 2026-05-08 04:52 | 27.45468 | -33.90066 | 37168 ft | 540 kts | 47° |
| 2026-05-08 04:52 | 27.50039 | -33.83367 | 37171 ft | 540 kts | 47° |
| 2026-05-08 04:53 | 27.54609 | -33.76660 | 37168 ft | 540 kts | 47° |
| 2026-05-08 04:53 | 27.59187 | -33.69930 | 37175 ft | 540 kts | 47° |
| 2026-05-08 04:54 | 27.62096 | -33.65648 | 37171 ft | 540 kts | 47° |
| 2026-05-08 04:54 | 27.66663 | -33.58918 | 37172 ft | 540 kts | 47° |
| 2026-05-08 04:55 | 27.71259 | -33.52135 | 37222 ft | 543 kts | 47° |
| 2026-05-08 04:55 | 27.73524 | -33.48788 | 37680 ft | 542 kts | 47° |
| 2026-05-08 04:55 | 27.75807 | -33.45410 | 38178 ft | 541 kts | 47° |
| 2026-05-08 04:56 | 27.78088 | -33.42033 | 38650 ft | 539 kts | 47° |
| 2026-05-08 04:56 | 27.80364 | -33.38661 | 39068 ft | 538 kts | 46° |
| 2026-05-08 04:56 | 27.82631 | -33.35299 | 39453 ft | 537 kts | 46° |
| 2026-05-08 04:56 | 27.84889 | -33.31950 | 39807 ft | 537 kts | 46° |
| 2026-05-08 04:57 | 27.87147 | -33.28598 | 40166 ft | 536 kts | 46° |
| 2026-05-08 04:57 | 27.89408 | -33.25239 | 40517 ft | 535 kts | 46° |
| 2026-05-08 04:57 | 27.91658 | -33.21893 | 40862 ft | 535 kts | 46° |
| 2026-05-08 04:57 | 27.93908 | -33.18545 | 41121 ft | 536 kts | 46° |
| 2026-05-08 04:58 | 27.98410 | -33.11836 | 41170 ft | 530 kts | 46° |
| 2026-05-08 04:58 | 28.02865 | -33.05189 | 41172 ft | 532 kts | 46° |
| 2026-05-08 04:59 | 28.07335 | -32.98512 | 41172 ft | 532 kts | 46° |
| 2026-05-08 04:59 | 28.11799 | -32.91830 | 41160 ft | 532 kts | 46° |
| 2026-05-08 05:00 | 28.16268 | -32.85131 | 41156 ft | 533 kts | 46° |
| 2026-05-08 05:00 | 28.20735 | -32.78424 | 41164 ft | 533 kts | 46° |
| 2026-05-08 05:01 | 28.25209 | -32.71694 | 41189 ft | 533 kts | 46° |
| 2026-05-08 05:01 | 28.29643 | -32.65016 | 41197 ft | 534 kts | 46° |
| 2026-05-08 05:02 | 28.34112 | -32.58275 | 41180 ft | 534 kts | 46° |
| 2026-05-08 05:02 | 28.38571 | -32.51536 | 41181 ft | 534 kts | 46° |
| 2026-05-08 05:03 | 28.43023 | -32.44799 | 41178 ft | 533 kts | 46° |
| 2026-05-08 05:03 | 28.47473 | -32.38054 | 41178 ft | 533 kts | 46° |
| 2026-05-08 05:04 | 28.51928 | -32.31290 | 41175 ft | 533 kts | 46° |
| 2026-05-08 05:04 | 28.56366 | -32.24541 | 41171 ft | 533 kts | 46° |
| 2026-05-08 05:05 | 28.60775 | -32.17827 | 41169 ft | 533 kts | 45° |
| 2026-05-08 05:05 | 28.65210 | -32.11061 | 41166 ft | 533 kts | 46° |
| 2026-05-08 05:06 | 28.69635 | -32.04300 | 41167 ft | 533 kts | 45° |
| 2026-05-08 05:06 | 28.74064 | -31.97523 | 41169 ft | 533 kts | 45° |
| 2026-05-08 05:07 | 28.78483 | -31.90749 | 41170 ft | 533 kts | 45° |
| 2026-05-08 05:07 | 28.82903 | -31.83962 | 41170 ft | 533 kts | 45° |
| 2026-05-08 05:08 | 28.87324 | -31.77164 | 41171 ft | 533 kts | 45° |
| 2026-05-08 05:08 | 28.91710 | -31.70409 | 41170 ft | 533 kts | 45° |
| 2026-05-08 05:09 | 28.96119 | -31.63605 | 41170 ft | 533 kts | 45° |
| 2026-05-08 05:09 | 29.00525 | -31.56797 | 41172 ft | 533 kts | 45° |
| 2026-05-08 05:10 | 29.07125 | -31.46578 | 41174 ft | 533 kts | 45° |
| 2026-05-08 05:11 | 29.11530 | -31.39742 | 41174 ft | 533 kts | 45° |
| 2026-05-08 05:11 | 29.15913 | -31.32931 | 41173 ft | 533 kts | 45° |
| 2026-05-08 05:12 | 29.20305 | -31.26094 | 41173 ft | 532 kts | 45° |
| 2026-05-08 05:12 | 29.24685 | -31.19263 | 41165 ft | 532 kts | 45° |
| 2026-05-08 05:13 | 29.29038 | -31.12464 | 41172 ft | 532 kts | 45° |
| 2026-05-08 05:13 | 29.33407 | -31.05629 | 41183 ft | 532 kts | 45° |
| 2026-05-08 05:14 | 29.37776 | -30.98782 | 41165 ft | 531 kts | 45° |
| 2026-05-08 05:14 | 29.42141 | -30.91931 | 41169 ft | 531 kts | 45° |
| 2026-05-08 05:15 | 29.46498 | -30.85081 | 41170 ft | 531 kts | 45° |
| 2026-05-08 05:15 | 29.47962 | -30.82778 | 41172 ft | 531 kts | 45° |